<?xml version="1.0" encoding="UTF-8" standalone="no" ?>
<gpx xmlns="http://www.topografix.com/GPX/1/1" xmlns:xsi="http://www.w3.org/2001/XMLSchema-instance" xsi:schemaLocation="http://www.topografix.com/GPX/1/1 http://www.topografix.com/GPX/1/1/gpx.xsd" version="1.1" creator="VisuGPX - https://www.visugpx.com">
  <metadata>
    <name>Dimanche 7 octobre 2010</name>
    <desc><![CDATA[Dimanche 7 octobre 2010]]></desc>
  </metadata>
  <trk>
    <name><![CDATA[ACTIVE LOG 001]]></name>
    <trkseg>
      <trkpt lat="47.17704" lon="-1.61278">
        <ele>7.347168</ele>
        <time>2010-11-07T07:53:30Z</time>
      </trkpt>
      <trkpt lat="47.17714" lon="-1.61208">
        <ele>7.347168</ele>
        <time>2010-11-07T07:53:50Z</time>
      </trkpt>
      <trkpt lat="47.17722" lon="-1.6114">
        <ele>7.347168</ele>
        <time>2010-11-07T07:54:02Z</time>
      </trkpt>
      <trkpt lat="47.17725" lon="-1.61069">
        <ele>7.347168</ele>
        <time>2010-11-07T07:54:13Z</time>
      </trkpt>
      <trkpt lat="47.17743" lon="-1.61003">
        <ele>6.8664551</ele>
        <time>2010-11-07T07:54:24Z</time>
      </trkpt>
      <trkpt lat="47.17785" lon="-1.60969">
        <ele>6.8664551</ele>
        <time>2010-11-07T07:54:36Z</time>
      </trkpt>
      <trkpt lat="47.17829" lon="-1.60936">
        <ele>6.3858643</ele>
        <time>2010-11-07T07:54:48Z</time>
      </trkpt>
      <trkpt lat="47.17874" lon="-1.60914">
        <ele>6.3858643</ele>
        <time>2010-11-07T07:55:00Z</time>
      </trkpt>
      <trkpt lat="47.17914" lon="-1.6094">
        <ele>6.3858643</ele>
        <time>2010-11-07T07:55:12Z</time>
      </trkpt>
      <trkpt lat="47.17952" lon="-1.60986">
        <ele>6.8664551</ele>
        <time>2010-11-07T07:55:24Z</time>
      </trkpt>
      <trkpt lat="47.1799" lon="-1.61027">
        <ele>7.347168</ele>
        <time>2010-11-07T07:55:35Z</time>
      </trkpt>
      <trkpt lat="47.18031" lon="-1.6106">
        <ele>6.8664551</ele>
        <time>2010-11-07T07:55:46Z</time>
      </trkpt>
      <trkpt lat="47.1807" lon="-1.61105">
        <ele>6.8664551</ele>
        <time>2010-11-07T07:55:58Z</time>
      </trkpt>
      <trkpt lat="47.18099" lon="-1.61157">
        <ele>5.9052734</ele>
        <time>2010-11-07T07:56:09Z</time>
      </trkpt>
      <trkpt lat="47.1813" lon="-1.61207">
        <ele>5.4245605</ele>
        <time>2010-11-07T07:56:21Z</time>
      </trkpt>
      <trkpt lat="47.18165" lon="-1.61254">
        <ele>6.3858643</ele>
        <time>2010-11-07T07:56:33Z</time>
      </trkpt>
      <trkpt lat="47.18203" lon="-1.61295">
        <ele>5.4245605</ele>
        <time>2010-11-07T07:56:45Z</time>
      </trkpt>
      <trkpt lat="47.18244" lon="-1.61328">
        <ele>5.4245605</ele>
        <time>2010-11-07T07:56:57Z</time>
      </trkpt>
      <trkpt lat="47.18286" lon="-1.61354">
        <ele>5.9052734</ele>
        <time>2010-11-07T07:57:08Z</time>
      </trkpt>
      <trkpt lat="47.18329" lon="-1.61376">
        <ele>5.9052734</ele>
        <time>2010-11-07T07:57:19Z</time>
      </trkpt>
      <trkpt lat="47.18374" lon="-1.61395">
        <ele>6.8664551</ele>
        <time>2010-11-07T07:57:31Z</time>
      </trkpt>
      <trkpt lat="47.1842" lon="-1.61414">
        <ele>5.9052734</ele>
        <time>2010-11-07T07:57:43Z</time>
      </trkpt>
      <trkpt lat="47.18448" lon="-1.61452">
        <ele>6.3858643</ele>
        <time>2010-11-07T07:57:56Z</time>
      </trkpt>
      <trkpt lat="47.18453" lon="-1.61519">
        <ele>6.8664551</ele>
        <time>2010-11-07T07:58:10Z</time>
      </trkpt>
      <trkpt lat="47.18458" lon="-1.61589">
        <ele>5.9052734</ele>
        <time>2010-11-07T07:58:23Z</time>
      </trkpt>
      <trkpt lat="47.18461" lon="-1.61656">
        <ele>5.9052734</ele>
        <time>2010-11-07T07:58:35Z</time>
      </trkpt>
      <trkpt lat="47.18465" lon="-1.61724">
        <ele>6.8664551</ele>
        <time>2010-11-07T07:58:47Z</time>
      </trkpt>
      <trkpt lat="47.18468" lon="-1.61794">
        <ele>5.9052734</ele>
        <time>2010-11-07T07:59:00Z</time>
      </trkpt>
      <trkpt lat="47.18472" lon="-1.61851">
        <ele>5.9052734</ele>
        <time>2010-11-07T07:59:32Z</time>
      </trkpt>
      <trkpt lat="47.18474" lon="-1.61918">
        <ele>5.9052734</ele>
        <time>2010-11-07T07:59:47Z</time>
      </trkpt>
      <trkpt lat="47.18479" lon="-1.61986">
        <ele>4.9438477</ele>
        <time>2010-11-07T08:00:07Z</time>
      </trkpt>
      <trkpt lat="47.18485" lon="-1.62058">
        <ele>5.4245605</ele>
        <time>2010-11-07T08:00:25Z</time>
      </trkpt>
      <trkpt lat="47.18487" lon="-1.62127">
        <ele>5.4245605</ele>
        <time>2010-11-07T08:00:37Z</time>
      </trkpt>
      <trkpt lat="47.18488" lon="-1.62195">
        <ele>5.4245605</ele>
        <time>2010-11-07T08:00:50Z</time>
      </trkpt>
      <trkpt lat="47.18488" lon="-1.62266">
        <ele>5.4245605</ele>
        <time>2010-11-07T08:01:04Z</time>
      </trkpt>
      <trkpt lat="47.18488" lon="-1.62332">
        <ele>4.9438477</ele>
        <time>2010-11-07T08:01:19Z</time>
      </trkpt>
      <trkpt lat="47.18482" lon="-1.62401">
        <ele>4.4632568</ele>
        <time>2010-11-07T08:01:30Z</time>
      </trkpt>
      <trkpt lat="47.18478" lon="-1.6247">
        <ele>4.4632568</ele>
        <time>2010-11-07T08:01:42Z</time>
      </trkpt>
      <trkpt lat="47.18475" lon="-1.62538">
        <ele>3.982666</ele>
        <time>2010-11-07T08:01:53Z</time>
      </trkpt>
      <trkpt lat="47.18473" lon="-1.62608">
        <ele>3.982666</ele>
        <time>2010-11-07T08:02:04Z</time>
      </trkpt>
      <trkpt lat="47.18467" lon="-1.62673">
        <ele>2.5406494</ele>
        <time>2010-11-07T08:02:14Z</time>
      </trkpt>
      <trkpt lat="47.1846" lon="-1.62744">
        <ele>2.5406494</ele>
        <time>2010-11-07T08:02:25Z</time>
      </trkpt>
      <trkpt lat="47.18457" lon="-1.62816">
        <ele>3.0212402</ele>
        <time>2010-11-07T08:02:36Z</time>
      </trkpt>
      <trkpt lat="47.18453" lon="-1.62885">
        <ele>3.982666</ele>
        <time>2010-11-07T08:02:47Z</time>
      </trkpt>
      <trkpt lat="47.18457" lon="-1.62955">
        <ele>3.982666</ele>
        <time>2010-11-07T08:02:58Z</time>
      </trkpt>
      <trkpt lat="47.18478" lon="-1.63016">
        <ele>3.982666</ele>
        <time>2010-11-07T08:03:09Z</time>
      </trkpt>
      <trkpt lat="47.18511" lon="-1.63063">
        <ele>3.982666</ele>
        <time>2010-11-07T08:03:20Z</time>
      </trkpt>
      <trkpt lat="47.18534" lon="-1.63115">
        <ele>2.0600586</ele>
        <time>2010-11-07T08:03:33Z</time>
      </trkpt>
      <trkpt lat="47.18559" lon="-1.6317">
        <ele>2.0600586</ele>
        <time>2010-11-07T08:03:45Z</time>
      </trkpt>
      <trkpt lat="47.1856" lon="-1.63231">
        <ele>2.0600586</ele>
        <time>2010-11-07T08:03:56Z</time>
      </trkpt>
      <trkpt lat="47.18593" lon="-1.63279">
        <ele>3.5019531</ele>
        <time>2010-11-07T08:04:07Z</time>
      </trkpt>
      <trkpt lat="47.18625" lon="-1.63335">
        <ele>4.4632568</ele>
        <time>2010-11-07T08:04:19Z</time>
      </trkpt>
      <trkpt lat="47.18651" lon="-1.63395">
        <ele>3.982666</ele>
        <time>2010-11-07T08:04:31Z</time>
      </trkpt>
      <trkpt lat="47.18682" lon="-1.63445">
        <ele>4.9438477</ele>
        <time>2010-11-07T08:04:47Z</time>
      </trkpt>
      <trkpt lat="47.18711" lon="-1.63495">
        <ele>5.4245605</ele>
        <time>2010-11-07T08:04:59Z</time>
      </trkpt>
      <trkpt lat="47.18737" lon="-1.6355">
        <ele>4.9438477</ele>
        <time>2010-11-07T08:05:10Z</time>
      </trkpt>
      <trkpt lat="47.18761" lon="-1.63609">
        <ele>4.9438477</ele>
        <time>2010-11-07T08:05:21Z</time>
      </trkpt>
      <trkpt lat="47.18783" lon="-1.63668">
        <ele>3.982666</ele>
        <time>2010-11-07T08:05:32Z</time>
      </trkpt>
      <trkpt lat="47.18804" lon="-1.6373">
        <ele>3.5019531</ele>
        <time>2010-11-07T08:05:42Z</time>
      </trkpt>
      <trkpt lat="47.18827" lon="-1.63789">
        <ele>4.4632568</ele>
        <time>2010-11-07T08:05:52Z</time>
      </trkpt>
      <trkpt lat="47.18852" lon="-1.63846">
        <ele>4.4632568</ele>
        <time>2010-11-07T08:06:02Z</time>
      </trkpt>
      <trkpt lat="47.18884" lon="-1.639">
        <ele>2.5406494</ele>
        <time>2010-11-07T08:06:13Z</time>
      </trkpt>
      <trkpt lat="47.18916" lon="-1.63951">
        <ele>2.5406494</ele>
        <time>2010-11-07T08:06:23Z</time>
      </trkpt>
      <trkpt lat="47.18947" lon="-1.64002">
        <ele>3.0212402</ele>
        <time>2010-11-07T08:06:33Z</time>
      </trkpt>
      <trkpt lat="47.18977" lon="-1.64054">
        <ele>3.0212402</ele>
        <time>2010-11-07T08:06:43Z</time>
      </trkpt>
      <trkpt lat="47.1901" lon="-1.64109">
        <ele>3.5019531</ele>
        <time>2010-11-07T08:06:54Z</time>
      </trkpt>
      <trkpt lat="47.19042" lon="-1.6416">
        <ele>3.982666</ele>
        <time>2010-11-07T08:07:05Z</time>
      </trkpt>
      <trkpt lat="47.19048" lon="-1.64224">
        <ele>3.5019531</ele>
        <time>2010-11-07T08:07:16Z</time>
      </trkpt>
      <trkpt lat="47.19032" lon="-1.64288">
        <ele>0.1374512</ele>
        <time>2010-11-07T08:07:30Z</time>
      </trkpt>
      <trkpt lat="47.19064" lon="-1.64322">
        <ele>2.0600586</ele>
        <time>2010-11-07T08:07:46Z</time>
      </trkpt>
      <trkpt lat="47.19058" lon="-1.64391">
        <ele>1.0986328</ele>
        <time>2010-11-07T08:07:58Z</time>
      </trkpt>
      <trkpt lat="47.19025" lon="-1.64423">
        <ele>1.5793457</ele>
        <time>2010-11-07T08:08:11Z</time>
      </trkpt>
      <trkpt lat="47.19" lon="-1.64476">
        <ele>3.5019531</ele>
        <time>2010-11-07T08:08:22Z</time>
      </trkpt>
      <trkpt lat="47.18998" lon="-1.64546">
        <ele>5.4245605</ele>
        <time>2010-11-07T08:08:33Z</time>
      </trkpt>
      <trkpt lat="47.19005" lon="-1.64617">
        <ele>4.4632568</ele>
        <time>2010-11-07T08:08:45Z</time>
      </trkpt>
      <trkpt lat="47.19009" lon="-1.6468">
        <ele>3.0212402</ele>
        <time>2010-11-07T08:08:56Z</time>
      </trkpt>
      <trkpt lat="47.19016" lon="-1.6475">
        <ele>0.1374512</ele>
        <time>2010-11-07T08:09:06Z</time>
      </trkpt>
      <trkpt lat="47.19021" lon="-1.64818">
        <ele>0.1374512</ele>
        <time>2010-11-07T08:09:16Z</time>
      </trkpt>
      <trkpt lat="47.19016" lon="-1.64887">
        <ele>1.0986328</ele>
        <time>2010-11-07T08:09:26Z</time>
      </trkpt>
      <trkpt lat="47.19004" lon="-1.64955">
        <ele>3.5019531</ele>
        <time>2010-11-07T08:09:38Z</time>
      </trkpt>
      <trkpt lat="47.19001" lon="-1.65022">
        <ele>1.0986328</ele>
        <time>2010-11-07T08:09:47Z</time>
      </trkpt>
      <trkpt lat="47.19019" lon="-1.65083">
        <ele>1.0986328</ele>
        <time>2010-11-07T08:10:00Z</time>
      </trkpt>
      <trkpt lat="47.19006" lon="-1.65148">
        <ele>1.5793457</ele>
        <time>2010-11-07T08:10:14Z</time>
      </trkpt>
      <trkpt lat="47.19012" lon="-1.65213">
        <ele>2.5406494</ele>
        <time>2010-11-07T08:10:27Z</time>
      </trkpt>
      <trkpt lat="47.19007" lon="-1.65267">
        <ele>4.9438477</ele>
        <time>2010-11-07T08:10:40Z</time>
      </trkpt>
      <trkpt lat="47.18961" lon="-1.65273">
        <ele>2.5406494</ele>
        <time>2010-11-07T08:10:51Z</time>
      </trkpt>
      <trkpt lat="47.18914" lon="-1.65251">
        <ele>1.5793457</ele>
        <time>2010-11-07T08:11:00Z</time>
      </trkpt>
      <trkpt lat="47.18871" lon="-1.65226">
        <ele>2.0600586</ele>
        <time>2010-11-07T08:11:10Z</time>
      </trkpt>
      <trkpt lat="47.18825" lon="-1.65195">
        <ele>3.0212402</ele>
        <time>2010-11-07T08:11:21Z</time>
      </trkpt>
      <trkpt lat="47.18785" lon="-1.65159">
        <ele>4.4632568</ele>
        <time>2010-11-07T08:11:32Z</time>
      </trkpt>
      <trkpt lat="47.1874" lon="-1.65133">
        <ele>4.4632568</ele>
        <time>2010-11-07T08:11:42Z</time>
      </trkpt>
      <trkpt lat="47.18691" lon="-1.65112">
        <ele>3.982666</ele>
        <time>2010-11-07T08:11:52Z</time>
      </trkpt>
      <trkpt lat="47.18645" lon="-1.65091">
        <ele>2.5406494</ele>
        <time>2010-11-07T08:12:02Z</time>
      </trkpt>
      <trkpt lat="47.18597" lon="-1.65074">
        <ele>2.0600586</ele>
        <time>2010-11-07T08:12:12Z</time>
      </trkpt>
      <trkpt lat="47.18553" lon="-1.6505">
        <ele>1.0986328</ele>
        <time>2010-11-07T08:12:23Z</time>
      </trkpt>
      <trkpt lat="47.18512" lon="-1.65014">
        <ele>1.5793457</ele>
        <time>2010-11-07T08:12:34Z</time>
      </trkpt>
      <trkpt lat="47.1847" lon="-1.64976">
        <ele>0.1374512</ele>
        <time>2010-11-07T08:12:44Z</time>
      </trkpt>
      <trkpt lat="47.18435" lon="-1.6493">
        <ele>1.0986328</ele>
        <time>2010-11-07T08:12:56Z</time>
      </trkpt>
      <trkpt lat="47.18426" lon="-1.64859">
        <ele>5.4245605</ele>
        <time>2010-11-07T08:13:12Z</time>
      </trkpt>
      <trkpt lat="47.18406" lon="-1.64796">
        <ele>9.7506104</ele>
        <time>2010-11-07T08:13:26Z</time>
      </trkpt>
      <trkpt lat="47.18377" lon="-1.64744">
        <ele>12.1538086</ele>
        <time>2010-11-07T08:13:37Z</time>
      </trkpt>
      <trkpt lat="47.18342" lon="-1.64702">
        <ele>11.1925049</ele>
        <time>2010-11-07T08:13:47Z</time>
      </trkpt>
      <trkpt lat="47.18314" lon="-1.64701">
        <ele>12.6343994</ele>
        <time>2010-11-07T08:14:28Z</time>
      </trkpt>
      <trkpt lat="47.18281" lon="-1.64687">
        <ele>28.0155029</ele>
        <time>2010-11-07T08:15:38Z</time>
      </trkpt>
      <trkpt lat="47.18262" lon="-1.64631">
        <ele>29.4575195</ele>
        <time>2010-11-07T08:16:07Z</time>
      </trkpt>
      <trkpt lat="47.18256" lon="-1.64561">
        <ele>31.8607178</ele>
        <time>2010-11-07T08:16:21Z</time>
      </trkpt>
      <trkpt lat="47.18237" lon="-1.64502">
        <ele>33.7834473</ele>
        <time>2010-11-07T08:16:32Z</time>
      </trkpt>
      <trkpt lat="47.18228" lon="-1.64433">
        <ele>40.9934082</ele>
        <time>2010-11-07T08:16:44Z</time>
      </trkpt>
      <trkpt lat="47.1822" lon="-1.64373">
        <ele>37.1480713</ele>
        <time>2010-11-07T08:17:09Z</time>
      </trkpt>
      <trkpt lat="47.18188" lon="-1.6433">
        <ele>37.6286621</ele>
        <time>2010-11-07T08:17:27Z</time>
      </trkpt>
      <trkpt lat="47.1817" lon="-1.64266">
        <ele>39.0706787</ele>
        <time>2010-11-07T08:17:38Z</time>
      </trkpt>
      <trkpt lat="47.18153" lon="-1.64202">
        <ele>41.473999</ele>
        <time>2010-11-07T08:17:50Z</time>
      </trkpt>
      <trkpt lat="47.18138" lon="-1.64137">
        <ele>41.9547119</ele>
        <time>2010-11-07T08:18:04Z</time>
      </trkpt>
      <trkpt lat="47.18107" lon="-1.64089">
        <ele>38.109375</ele>
        <time>2010-11-07T08:18:23Z</time>
      </trkpt>
      <trkpt lat="47.18091" lon="-1.64024">
        <ele>35.2254639</ele>
        <time>2010-11-07T08:18:35Z</time>
      </trkpt>
      <trkpt lat="47.18066" lon="-1.6396">
        <ele>35.2254639</ele>
        <time>2010-11-07T08:18:48Z</time>
      </trkpt>
      <trkpt lat="47.18041" lon="-1.63897">
        <ele>36.6674805</ele>
        <time>2010-11-07T08:18:59Z</time>
      </trkpt>
      <trkpt lat="47.18005" lon="-1.63842">
        <ele>33.3028564</ele>
        <time>2010-11-07T08:19:11Z</time>
      </trkpt>
      <trkpt lat="47.17986" lon="-1.63777">
        <ele>28.0155029</ele>
        <time>2010-11-07T08:19:24Z</time>
      </trkpt>
      <trkpt lat="47.17959" lon="-1.63714">
        <ele>22.7282715</ele>
        <time>2010-11-07T08:19:34Z</time>
      </trkpt>
      <trkpt lat="47.17922" lon="-1.63656">
        <ele>19.8443604</ele>
        <time>2010-11-07T08:19:43Z</time>
      </trkpt>
      <trkpt lat="47.17892" lon="-1.636">
        <ele>18.4023438</ele>
        <time>2010-11-07T08:19:52Z</time>
      </trkpt>
      <trkpt lat="47.17857" lon="-1.63538">
        <ele>18.4023438</ele>
        <time>2010-11-07T08:20:03Z</time>
      </trkpt>
      <trkpt lat="47.17849" lon="-1.63467">
        <ele>12.6343994</ele>
        <time>2010-11-07T08:20:21Z</time>
      </trkpt>
      <trkpt lat="47.17805" lon="-1.63446">
        <ele>12.6343994</ele>
        <time>2010-11-07T08:21:22Z</time>
      </trkpt>
      <trkpt lat="47.17765" lon="-1.63417">
        <ele>14.076416</ele>
        <time>2010-11-07T08:21:39Z</time>
      </trkpt>
      <trkpt lat="47.17745" lon="-1.63467">
        <ele>14.076416</ele>
        <time>2010-11-07T08:22:00Z</time>
      </trkpt>
      <trkpt lat="47.17712" lon="-1.63505">
        <ele>15.9990234</ele>
        <time>2010-11-07T08:22:15Z</time>
      </trkpt>
      <trkpt lat="47.17676" lon="-1.63546">
        <ele>19.3637695</ele>
        <time>2010-11-07T08:22:29Z</time>
      </trkpt>
      <trkpt lat="47.17683" lon="-1.636">
        <ele>15.9990234</ele>
        <time>2010-11-07T08:22:50Z</time>
      </trkpt>
      <trkpt lat="47.1769" lon="-1.63664">
        <ele>7.8278809</ele>
        <time>2010-11-07T08:23:25Z</time>
      </trkpt>
      <trkpt lat="47.1768" lon="-1.63729">
        <ele>-4.1885986</ele>
        <time>2010-11-07T08:23:45Z</time>
      </trkpt>
      <trkpt lat="47.17648" lon="-1.63784">
        <ele>-3.7078857</ele>
        <time>2010-11-07T08:24:15Z</time>
      </trkpt>
      <trkpt lat="47.17612" lon="-1.63796">
        <ele>7.347168</ele>
        <time>2010-11-07T08:24:52Z</time>
      </trkpt>
      <trkpt lat="47.17581" lon="-1.63747">
        <ele>21.7669678</ele>
        <time>2010-11-07T08:25:21Z</time>
      </trkpt>
      <trkpt lat="47.17545" lon="-1.63774">
        <ele>23.2089844</ele>
        <time>2010-11-07T08:25:42Z</time>
      </trkpt>
      <trkpt lat="47.17508" lon="-1.63814">
        <ele>23.2089844</ele>
        <time>2010-11-07T08:25:57Z</time>
      </trkpt>
      <trkpt lat="47.17479" lon="-1.63869">
        <ele>23.2089844</ele>
        <time>2010-11-07T08:26:15Z</time>
      </trkpt>
      <trkpt lat="47.17468" lon="-1.63932">
        <ele>21.286377</ele>
        <time>2010-11-07T08:26:29Z</time>
      </trkpt>
      <trkpt lat="47.1747" lon="-1.64005">
        <ele>15.9990234</ele>
        <time>2010-11-07T08:28:08Z</time>
      </trkpt>
      <trkpt lat="47.17482" lon="-1.64072">
        <ele>15.9990234</ele>
        <time>2010-11-07T08:28:25Z</time>
      </trkpt>
      <trkpt lat="47.17511" lon="-1.64118">
        <ele>17.4411621</ele>
        <time>2010-11-07T08:28:42Z</time>
      </trkpt>
      <trkpt lat="47.17551" lon="-1.6416">
        <ele>21.7669678</ele>
        <time>2010-11-07T08:28:59Z</time>
      </trkpt>
      <trkpt lat="47.17589" lon="-1.64207">
        <ele>25.6123047</ele>
        <time>2010-11-07T08:29:15Z</time>
      </trkpt>
      <trkpt lat="47.17623" lon="-1.64255">
        <ele>30.4188232</ele>
        <time>2010-11-07T08:29:31Z</time>
      </trkpt>
      <trkpt lat="47.17646" lon="-1.64314">
        <ele>34.2641602</ele>
        <time>2010-11-07T08:29:46Z</time>
      </trkpt>
      <trkpt lat="47.1765" lon="-1.64383">
        <ele>32.8222656</ele>
        <time>2010-11-07T08:30:00Z</time>
      </trkpt>
      <trkpt lat="47.17664" lon="-1.64448">
        <ele>32.3415527</ele>
        <time>2010-11-07T08:30:14Z</time>
      </trkpt>
      <trkpt lat="47.17684" lon="-1.64513">
        <ele>33.3028564</ele>
        <time>2010-11-07T08:30:27Z</time>
      </trkpt>
      <trkpt lat="47.17703" lon="-1.64573">
        <ele>33.3028564</ele>
        <time>2010-11-07T08:30:38Z</time>
      </trkpt>
      <trkpt lat="47.17723" lon="-1.64638">
        <ele>32.8222656</ele>
        <time>2010-11-07T08:30:50Z</time>
      </trkpt>
      <trkpt lat="47.17752" lon="-1.64699">
        <ele>33.3028564</ele>
        <time>2010-11-07T08:31:02Z</time>
      </trkpt>
      <trkpt lat="47.17775" lon="-1.64758">
        <ele>33.7834473</ele>
        <time>2010-11-07T08:31:13Z</time>
      </trkpt>
      <trkpt lat="47.17803" lon="-1.64813">
        <ele>34.2641602</ele>
        <time>2010-11-07T08:31:24Z</time>
      </trkpt>
      <trkpt lat="47.17806" lon="-1.64871">
        <ele>35.7060547</ele>
        <time>2010-11-07T08:31:36Z</time>
      </trkpt>
      <trkpt lat="47.17775" lon="-1.64924">
        <ele>37.1480713</ele>
        <time>2010-11-07T08:31:50Z</time>
      </trkpt>
      <trkpt lat="47.1774" lon="-1.64972">
        <ele>38.5900879</ele>
        <time>2010-11-07T08:32:03Z</time>
      </trkpt>
      <trkpt lat="47.17705" lon="-1.65018">
        <ele>39.0706787</ele>
        <time>2010-11-07T08:32:16Z</time>
      </trkpt>
      <trkpt lat="47.17669" lon="-1.65064">
        <ele>38.5900879</ele>
        <time>2010-11-07T08:32:28Z</time>
      </trkpt>
      <trkpt lat="47.17639" lon="-1.65121">
        <ele>38.5900879</ele>
        <time>2010-11-07T08:32:39Z</time>
      </trkpt>
      <trkpt lat="47.17612" lon="-1.65175">
        <ele>37.1480713</ele>
        <time>2010-11-07T08:32:51Z</time>
      </trkpt>
      <trkpt lat="47.17589" lon="-1.65228">
        <ele>35.7060547</ele>
        <time>2010-11-07T08:33:04Z</time>
      </trkpt>
      <trkpt lat="47.17555" lon="-1.65282">
        <ele>31.380127</ele>
        <time>2010-11-07T08:33:13Z</time>
      </trkpt>
      <trkpt lat="47.17515" lon="-1.65321">
        <ele>27.0543213</ele>
        <time>2010-11-07T08:33:21Z</time>
      </trkpt>
      <trkpt lat="47.17523" lon="-1.65366">
        <ele>28.0155029</ele>
        <time>2010-11-07T08:33:33Z</time>
      </trkpt>
      <trkpt lat="47.17537" lon="-1.6543">
        <ele>28.4962158</ele>
        <time>2010-11-07T08:33:42Z</time>
      </trkpt>
      <trkpt lat="47.17534" lon="-1.65497">
        <ele>28.4962158</ele>
        <time>2010-11-07T08:33:52Z</time>
      </trkpt>
      <trkpt lat="47.17538" lon="-1.65566">
        <ele>30.4188232</ele>
        <time>2010-11-07T08:34:03Z</time>
      </trkpt>
      <trkpt lat="47.17498" lon="-1.65607">
        <ele>30.4188232</ele>
        <time>2010-11-07T08:34:14Z</time>
      </trkpt>
      <trkpt lat="47.1747" lon="-1.6566">
        <ele>29.9381104</ele>
        <time>2010-11-07T08:34:23Z</time>
      </trkpt>
      <trkpt lat="47.17455" lon="-1.6572">
        <ele>29.4575195</ele>
        <time>2010-11-07T08:34:32Z</time>
      </trkpt>
      <trkpt lat="47.17497" lon="-1.6575">
        <ele>30.4188232</ele>
        <time>2010-11-07T08:34:42Z</time>
      </trkpt>
      <trkpt lat="47.17506" lon="-1.65792">
        <ele>31.380127</ele>
        <time>2010-11-07T08:34:55Z</time>
      </trkpt>
      <trkpt lat="47.17547" lon="-1.6578">
        <ele>30.8995361</ele>
        <time>2010-11-07T08:35:07Z</time>
      </trkpt>
      <trkpt lat="47.17581" lon="-1.65815">
        <ele>31.380127</ele>
        <time>2010-11-07T08:35:19Z</time>
      </trkpt>
      <trkpt lat="47.17609" lon="-1.6587">
        <ele>31.8607178</ele>
        <time>2010-11-07T08:35:29Z</time>
      </trkpt>
      <trkpt lat="47.17633" lon="-1.65926">
        <ele>31.380127</ele>
        <time>2010-11-07T08:35:39Z</time>
      </trkpt>
      <trkpt lat="47.17662" lon="-1.65985">
        <ele>31.380127</ele>
        <time>2010-11-07T08:35:49Z</time>
      </trkpt>
      <trkpt lat="47.17673" lon="-1.66051">
        <ele>31.380127</ele>
        <time>2010-11-07T08:35:59Z</time>
      </trkpt>
      <trkpt lat="47.17686" lon="-1.66121">
        <ele>33.7834473</ele>
        <time>2010-11-07T08:36:10Z</time>
      </trkpt>
      <trkpt lat="47.17697" lon="-1.66191">
        <ele>37.6286621</ele>
        <time>2010-11-07T08:36:19Z</time>
      </trkpt>
      <trkpt lat="47.17708" lon="-1.66264">
        <ele>38.5900879</ele>
        <time>2010-11-07T08:36:29Z</time>
      </trkpt>
      <trkpt lat="47.17718" lon="-1.66336">
        <ele>38.109375</ele>
        <time>2010-11-07T08:36:39Z</time>
      </trkpt>
      <trkpt lat="47.17752" lon="-1.66318">
        <ele>37.1480713</ele>
        <time>2010-11-07T08:36:50Z</time>
      </trkpt>
      <trkpt lat="47.17786" lon="-1.66271">
        <ele>35.2254639</ele>
        <time>2010-11-07T08:37:00Z</time>
      </trkpt>
      <trkpt lat="47.1782" lon="-1.66228">
        <ele>36.1867676</ele>
        <time>2010-11-07T08:37:10Z</time>
      </trkpt>
      <trkpt lat="47.17856" lon="-1.66183">
        <ele>36.1867676</ele>
        <time>2010-11-07T08:37:20Z</time>
      </trkpt>
      <trkpt lat="47.17897" lon="-1.66179">
        <ele>37.6286621</ele>
        <time>2010-11-07T08:37:32Z</time>
      </trkpt>
      <trkpt lat="47.1794" lon="-1.66219">
        <ele>39.0706787</ele>
        <time>2010-11-07T08:37:44Z</time>
      </trkpt>
      <trkpt lat="47.17981" lon="-1.66187">
        <ele>40.5128174</ele>
        <time>2010-11-07T08:37:56Z</time>
      </trkpt>
      <trkpt lat="47.18025" lon="-1.66176">
        <ele>41.473999</ele>
        <time>2010-11-07T08:38:08Z</time>
      </trkpt>
      <trkpt lat="47.18053" lon="-1.66228">
        <ele>42.9160156</ele>
        <time>2010-11-07T08:38:20Z</time>
      </trkpt>
      <trkpt lat="47.1808" lon="-1.66285">
        <ele>40.9934082</ele>
        <time>2010-11-07T08:38:31Z</time>
      </trkpt>
      <trkpt lat="47.18117" lon="-1.66328">
        <ele>40.9934082</ele>
        <time>2010-11-07T08:38:42Z</time>
      </trkpt>
      <trkpt lat="47.18159" lon="-1.66367">
        <ele>40.5128174</ele>
        <time>2010-11-07T08:38:53Z</time>
      </trkpt>
      <trkpt lat="47.18198" lon="-1.66374">
        <ele>40.5128174</ele>
        <time>2010-11-07T08:39:05Z</time>
      </trkpt>
      <trkpt lat="47.18232" lon="-1.66326">
        <ele>37.1480713</ele>
        <time>2010-11-07T08:39:16Z</time>
      </trkpt>
      <trkpt lat="47.18269" lon="-1.66284">
        <ele>36.6674805</ele>
        <time>2010-11-07T08:39:27Z</time>
      </trkpt>
      <trkpt lat="47.18309" lon="-1.6625">
        <ele>37.1480713</ele>
        <time>2010-11-07T08:39:41Z</time>
      </trkpt>
      <trkpt lat="47.1835" lon="-1.66218">
        <ele>35.7060547</ele>
        <time>2010-11-07T08:39:50Z</time>
      </trkpt>
      <trkpt lat="47.18395" lon="-1.66209">
        <ele>33.3028564</ele>
        <time>2010-11-07T08:39:58Z</time>
      </trkpt>
      <trkpt lat="47.18429" lon="-1.66173">
        <ele>29.9381104</ele>
        <time>2010-11-07T08:40:07Z</time>
      </trkpt>
      <trkpt lat="47.18463" lon="-1.66129">
        <ele>27.0543213</ele>
        <time>2010-11-07T08:40:17Z</time>
      </trkpt>
      <trkpt lat="47.18503" lon="-1.66085">
        <ele>25.1317139</ele>
        <time>2010-11-07T08:40:31Z</time>
      </trkpt>
      <trkpt lat="47.1849" lon="-1.66034">
        <ele>29.4575195</ele>
        <time>2010-11-07T08:42:21Z</time>
      </trkpt>
      <trkpt lat="47.18461" lon="-1.65985">
        <ele>28.0155029</ele>
        <time>2010-11-07T08:42:39Z</time>
      </trkpt>
      <trkpt lat="47.18467" lon="-1.6592">
        <ele>37.6286621</ele>
        <time>2010-11-07T08:43:04Z</time>
      </trkpt>
      <trkpt lat="47.1851" lon="-1.65851">
        <ele>50.6065674</ele>
        <time>2010-11-07T08:43:29Z</time>
      </trkpt>
      <trkpt lat="47.18475" lon="-1.65811">
        <ele>53.0097656</ele>
        <time>2010-11-07T08:43:44Z</time>
      </trkpt>
      <trkpt lat="47.18441" lon="-1.65762">
        <ele>55.8937988</ele>
        <time>2010-11-07T08:44:00Z</time>
      </trkpt>
      <trkpt lat="47.18451" lon="-1.65708">
        <ele>54.932373</ele>
        <time>2010-11-07T08:44:26Z</time>
      </trkpt>
      <trkpt lat="47.18498" lon="-1.6572">
        <ele>52.5291748</ele>
        <time>2010-11-07T08:44:49Z</time>
      </trkpt>
      <trkpt lat="47.18525" lon="-1.65755">
        <ele>50.1259766</ele>
        <time>2010-11-07T08:45:08Z</time>
      </trkpt>
      <trkpt lat="47.18561" lon="-1.65804">
        <ele>43.3966064</ele>
        <time>2010-11-07T08:45:33Z</time>
      </trkpt>
      <trkpt lat="47.18576" lon="-1.65867">
        <ele>41.473999</ele>
        <time>2010-11-07T08:45:47Z</time>
      </trkpt>
      <trkpt lat="47.18569" lon="-1.65864">
        <ele>39.5512695</ele>
        <time>2010-11-07T08:48:24Z</time>
      </trkpt>
      <trkpt lat="47.18539" lon="-1.65873">
        <ele>37.1480713</ele>
        <time>2010-11-07T08:48:48Z</time>
      </trkpt>
      <trkpt lat="47.18561" lon="-1.65925">
        <ele>29.4575195</ele>
        <time>2010-11-07T08:49:10Z</time>
      </trkpt>
      <trkpt lat="47.18542" lon="-1.65975">
        <ele>21.286377</ele>
        <time>2010-11-07T08:49:35Z</time>
      </trkpt>
      <trkpt lat="47.18538" lon="-1.66042">
        <ele>8.3085938</ele>
        <time>2010-11-07T08:50:07Z</time>
      </trkpt>
      <trkpt lat="47.18549" lon="-1.66006">
        <ele>24.651001</ele>
        <time>2010-11-07T08:50:53Z</time>
      </trkpt>
      <trkpt lat="47.18594" lon="-1.65975">
        <ele>40.0321045</ele>
        <time>2010-11-07T08:51:17Z</time>
      </trkpt>
      <trkpt lat="47.18632" lon="-1.65944">
        <ele>40.0321045</ele>
        <time>2010-11-07T08:51:47Z</time>
      </trkpt>
      <trkpt lat="47.18664" lon="-1.65983">
        <ele>30.4188232</ele>
        <time>2010-11-07T08:52:06Z</time>
      </trkpt>
      <trkpt lat="47.18704" lon="-1.66018">
        <ele>21.7669678</ele>
        <time>2010-11-07T08:52:22Z</time>
      </trkpt>
      <trkpt lat="47.18694" lon="-1.66053">
        <ele>22.7282715</ele>
        <time>2010-11-07T08:53:45Z</time>
      </trkpt>
      <trkpt lat="47.18726" lon="-1.66074">
        <ele>16.4797363</ele>
        <time>2010-11-07T08:54:03Z</time>
      </trkpt>
      <trkpt lat="47.18732" lon="-1.66142">
        <ele>9.2698975</ele>
        <time>2010-11-07T08:54:27Z</time>
      </trkpt>
      <trkpt lat="47.18712" lon="-1.66099">
        <ele>11.1925049</ele>
        <time>2010-11-07T08:55:00Z</time>
      </trkpt>
      <trkpt lat="47.18676" lon="-1.66058">
        <ele>28.9769287</ele>
        <time>2010-11-07T08:56:03Z</time>
      </trkpt>
      <trkpt lat="47.18667" lon="-1.66092">
        <ele>25.1317139</ele>
        <time>2010-11-07T08:56:28Z</time>
      </trkpt>
      <trkpt lat="47.18687" lon="-1.66152">
        <ele>0.618042</ele>
        <time>2010-11-07T08:56:57Z</time>
      </trkpt>
      <trkpt lat="47.18722" lon="-1.66196">
        <ele>6.3858643</ele>
        <time>2010-11-07T08:58:26Z</time>
      </trkpt>
      <trkpt lat="47.18758" lon="-1.66236">
        <ele>3.982666</ele>
        <time>2010-11-07T08:58:50Z</time>
      </trkpt>
      <trkpt lat="47.18779" lon="-1.66297">
        <ele>12.1538086</ele>
        <time>2010-11-07T08:59:23Z</time>
      </trkpt>
      <trkpt lat="47.18787" lon="-1.66363">
        <ele>6.8664551</ele>
        <time>2010-11-07T08:59:39Z</time>
      </trkpt>
      <trkpt lat="47.18766" lon="-1.66428">
        <ele>3.5019531</ele>
        <time>2010-11-07T08:59:52Z</time>
      </trkpt>
      <trkpt lat="47.18768" lon="-1.66487">
        <ele>6.3858643</ele>
        <time>2010-11-07T09:00:59Z</time>
      </trkpt>
      <trkpt lat="47.18721" lon="-1.66499">
        <ele>12.1538086</ele>
        <time>2010-11-07T09:01:16Z</time>
      </trkpt>
      <trkpt lat="47.18674" lon="-1.66503">
        <ele>16.9604492</ele>
        <time>2010-11-07T09:01:33Z</time>
      </trkpt>
      <trkpt lat="47.18629" lon="-1.66481">
        <ele>29.4575195</ele>
        <time>2010-11-07T09:01:54Z</time>
      </trkpt>
      <trkpt lat="47.1858" lon="-1.66466">
        <ele>36.6674805</ele>
        <time>2010-11-07T09:02:15Z</time>
      </trkpt>
      <trkpt lat="47.1853" lon="-1.66457">
        <ele>42.9160156</ele>
        <time>2010-11-07T09:02:35Z</time>
      </trkpt>
      <trkpt lat="47.18484" lon="-1.66444">
        <ele>43.8773193</ele>
        <time>2010-11-07T09:02:55Z</time>
      </trkpt>
      <trkpt lat="47.18452" lon="-1.66466">
        <ele>44.838623</ele>
        <time>2010-11-07T09:03:15Z</time>
      </trkpt>
      <trkpt lat="47.18463" lon="-1.66532">
        <ele>44.3580322</ele>
        <time>2010-11-07T09:03:29Z</time>
      </trkpt>
      <trkpt lat="47.18474" lon="-1.66597">
        <ele>43.8773193</ele>
        <time>2010-11-07T09:03:41Z</time>
      </trkpt>
      <trkpt lat="47.18487" lon="-1.66665">
        <ele>41.473999</ele>
        <time>2010-11-07T09:03:52Z</time>
      </trkpt>
      <trkpt lat="47.18515" lon="-1.6669">
        <ele>39.0706787</ele>
        <time>2010-11-07T09:04:05Z</time>
      </trkpt>
      <trkpt lat="47.18536" lon="-1.66751">
        <ele>34.744873</ele>
        <time>2010-11-07T09:04:15Z</time>
      </trkpt>
      <trkpt lat="47.18565" lon="-1.668">
        <ele>28.9769287</ele>
        <time>2010-11-07T09:04:25Z</time>
      </trkpt>
      <trkpt lat="47.18599" lon="-1.66751">
        <ele>25.6123047</ele>
        <time>2010-11-07T09:04:38Z</time>
      </trkpt>
      <trkpt lat="47.18608" lon="-1.6668">
        <ele>22.2475586</ele>
        <time>2010-11-07T09:04:52Z</time>
      </trkpt>
      <trkpt lat="47.18656" lon="-1.66633">
        <ele>18.4023438</ele>
        <time>2010-11-07T09:05:05Z</time>
      </trkpt>
      <trkpt lat="47.18705" lon="-1.66581">
        <ele>12.6343994</ele>
        <time>2010-11-07T09:05:16Z</time>
      </trkpt>
      <trkpt lat="47.18765" lon="-1.66569">
        <ele>9.2698975</ele>
        <time>2010-11-07T09:05:31Z</time>
      </trkpt>
      <trkpt lat="47.1878" lon="-1.66633">
        <ele>8.7891846</ele>
        <time>2010-11-07T09:05:47Z</time>
      </trkpt>
      <trkpt lat="47.18775" lon="-1.66686">
        <ele>7.8278809</ele>
        <time>2010-11-07T09:06:02Z</time>
      </trkpt>
      <trkpt lat="47.18733" lon="-1.66702">
        <ele>7.347168</ele>
        <time>2010-11-07T09:06:14Z</time>
      </trkpt>
      <trkpt lat="47.18698" lon="-1.66744">
        <ele>10.711792</ele>
        <time>2010-11-07T09:06:26Z</time>
      </trkpt>
      <trkpt lat="47.18665" lon="-1.6679">
        <ele>14.076416</ele>
        <time>2010-11-07T09:06:40Z</time>
      </trkpt>
      <trkpt lat="47.1863" lon="-1.66834">
        <ele>15.9990234</ele>
        <time>2010-11-07T09:06:55Z</time>
      </trkpt>
      <trkpt lat="47.18612" lon="-1.66866">
        <ele>18.8830566</ele>
        <time>2010-11-07T09:07:13Z</time>
      </trkpt>
      <trkpt lat="47.18651" lon="-1.66837">
        <ele>22.2475586</ele>
        <time>2010-11-07T09:07:32Z</time>
      </trkpt>
      <trkpt lat="47.18692" lon="-1.66807">
        <ele>21.286377</ele>
        <time>2010-11-07T09:07:46Z</time>
      </trkpt>
      <trkpt lat="47.18738" lon="-1.66788">
        <ele>17.4411621</ele>
        <time>2010-11-07T09:07:56Z</time>
      </trkpt>
      <trkpt lat="47.18773" lon="-1.66791">
        <ele>11.6732178</ele>
        <time>2010-11-07T09:08:08Z</time>
      </trkpt>
      <trkpt lat="47.18757" lon="-1.66852">
        <ele>12.6343994</ele>
        <time>2010-11-07T09:08:23Z</time>
      </trkpt>
      <trkpt lat="47.18766" lon="-1.66918">
        <ele>8.7891846</ele>
        <time>2010-11-07T09:08:51Z</time>
      </trkpt>
      <trkpt lat="47.18788" lon="-1.6699">
        <ele>5.9052734</ele>
        <time>2010-11-07T09:09:19Z</time>
      </trkpt>
      <trkpt lat="47.18803" lon="-1.67064">
        <ele>6.3858643</ele>
        <time>2010-11-07T09:09:44Z</time>
      </trkpt>
      <trkpt lat="47.18826" lon="-1.6713">
        <ele>4.9438477</ele>
        <time>2010-11-07T09:10:44Z</time>
      </trkpt>
      <trkpt lat="47.18859" lon="-1.67185">
        <ele>1.0986328</ele>
        <time>2010-11-07T09:11:11Z</time>
      </trkpt>
      <trkpt lat="47.18865" lon="-1.67259">
        <ele>16.9604492</ele>
        <time>2010-11-07T09:12:35Z</time>
      </trkpt>
      <trkpt lat="47.18879" lon="-1.67324">
        <ele>15.5184326</ele>
        <time>2010-11-07T09:13:01Z</time>
      </trkpt>
      <trkpt lat="47.1889" lon="-1.67388">
        <ele>16.9604492</ele>
        <time>2010-11-07T09:13:21Z</time>
      </trkpt>
      <trkpt lat="47.18915" lon="-1.6745">
        <ele>18.8830566</ele>
        <time>2010-11-07T09:13:39Z</time>
      </trkpt>
      <trkpt lat="47.18913" lon="-1.6752">
        <ele>19.8443604</ele>
        <time>2010-11-07T09:13:55Z</time>
      </trkpt>
      <trkpt lat="47.18932" lon="-1.67585">
        <ele>22.7282715</ele>
        <time>2010-11-07T09:14:12Z</time>
      </trkpt>
      <trkpt lat="47.18925" lon="-1.67664">
        <ele>12.6343994</ele>
        <time>2010-11-07T09:15:15Z</time>
      </trkpt>
      <trkpt lat="47.18916" lon="-1.67724">
        <ele>18.4023438</ele>
        <time>2010-11-07T09:15:32Z</time>
      </trkpt>
      <trkpt lat="47.18914" lon="-1.67783">
        <ele>25.1317139</ele>
        <time>2010-11-07T09:15:52Z</time>
      </trkpt>
      <trkpt lat="47.18919" lon="-1.67852">
        <ele>24.651001</ele>
        <time>2010-11-07T09:16:03Z</time>
      </trkpt>
      <trkpt lat="47.18943" lon="-1.6788">
        <ele>28.4962158</ele>
        <time>2010-11-07T09:16:33Z</time>
      </trkpt>
      <trkpt lat="47.18978" lon="-1.67922">
        <ele>28.9769287</ele>
        <time>2010-11-07T09:16:49Z</time>
      </trkpt>
      <trkpt lat="47.18977" lon="-1.67981">
        <ele>30.4188232</ele>
        <time>2010-11-07T09:17:04Z</time>
      </trkpt>
      <trkpt lat="47.19007" lon="-1.68023">
        <ele>30.4188232</ele>
        <time>2010-11-07T09:17:19Z</time>
      </trkpt>
      <trkpt lat="47.19057" lon="-1.68033">
        <ele>27.0543213</ele>
        <time>2010-11-07T09:17:27Z</time>
      </trkpt>
      <trkpt lat="47.19089" lon="-1.68076">
        <ele>27.5349121</ele>
        <time>2010-11-07T09:17:36Z</time>
      </trkpt>
      <trkpt lat="47.19111" lon="-1.6814">
        <ele>28.9769287</ele>
        <time>2010-11-07T09:17:48Z</time>
      </trkpt>
      <trkpt lat="47.19124" lon="-1.68192">
        <ele>15.5184326</ele>
        <time>2010-11-07T09:18:15Z</time>
      </trkpt>
      <trkpt lat="47.19143" lon="-1.68215">
        <ele>4.4632568</ele>
        <time>2010-11-07T09:18:34Z</time>
      </trkpt>
      <trkpt lat="47.19183" lon="-1.68257">
        <ele>4.4632568</ele>
        <time>2010-11-07T09:21:30Z</time>
      </trkpt>
      <trkpt lat="47.19196" lon="-1.68321">
        <ele>7.347168</ele>
        <time>2010-11-07T09:21:48Z</time>
      </trkpt>
      <trkpt lat="47.192" lon="-1.68387">
        <ele>12.6343994</ele>
        <time>2010-11-07T09:22:05Z</time>
      </trkpt>
      <trkpt lat="47.19204" lon="-1.68458">
        <ele>15.9990234</ele>
        <time>2010-11-07T09:22:19Z</time>
      </trkpt>
      <trkpt lat="47.1922" lon="-1.68518">
        <ele>21.7669678</ele>
        <time>2010-11-07T09:22:35Z</time>
      </trkpt>
      <trkpt lat="47.19237" lon="-1.68585">
        <ele>25.6123047</ele>
        <time>2010-11-07T09:22:50Z</time>
      </trkpt>
      <trkpt lat="47.19245" lon="-1.68657">
        <ele>27.5349121</ele>
        <time>2010-11-07T09:23:06Z</time>
      </trkpt>
      <trkpt lat="47.19225" lon="-1.68722">
        <ele>29.9381104</ele>
        <time>2010-11-07T09:23:23Z</time>
      </trkpt>
      <trkpt lat="47.19236" lon="-1.6879">
        <ele>33.7834473</ele>
        <time>2010-11-07T09:23:39Z</time>
      </trkpt>
      <trkpt lat="47.19248" lon="-1.68849">
        <ele>37.1480713</ele>
        <time>2010-11-07T09:23:57Z</time>
      </trkpt>
      <trkpt lat="47.19275" lon="-1.68903">
        <ele>37.1480713</ele>
        <time>2010-11-07T09:24:10Z</time>
      </trkpt>
      <trkpt lat="47.19302" lon="-1.68956">
        <ele>36.6674805</ele>
        <time>2010-11-07T09:24:21Z</time>
      </trkpt>
      <trkpt lat="47.1933" lon="-1.69012">
        <ele>33.7834473</ele>
        <time>2010-11-07T09:24:32Z</time>
      </trkpt>
      <trkpt lat="47.19354" lon="-1.69068">
        <ele>31.8607178</ele>
        <time>2010-11-07T09:24:40Z</time>
      </trkpt>
      <trkpt lat="47.19373" lon="-1.69137">
        <ele>27.5349121</ele>
        <time>2010-11-07T09:24:47Z</time>
      </trkpt>
      <trkpt lat="47.19373" lon="-1.69201">
        <ele>24.651001</ele>
        <time>2010-11-07T09:24:55Z</time>
      </trkpt>
      <trkpt lat="47.19331" lon="-1.69233">
        <ele>28.0155029</ele>
        <time>2010-11-07T09:25:05Z</time>
      </trkpt>
      <trkpt lat="47.19293" lon="-1.69274">
        <ele>30.8995361</ele>
        <time>2010-11-07T09:25:16Z</time>
      </trkpt>
      <trkpt lat="47.19251" lon="-1.69303">
        <ele>30.4188232</ele>
        <time>2010-11-07T09:25:27Z</time>
      </trkpt>
      <trkpt lat="47.19203" lon="-1.6932">
        <ele>30.4188232</ele>
        <time>2010-11-07T09:25:38Z</time>
      </trkpt>
      <trkpt lat="47.19161" lon="-1.6935">
        <ele>29.4575195</ele>
        <time>2010-11-07T09:25:48Z</time>
      </trkpt>
      <trkpt lat="47.19122" lon="-1.69389">
        <ele>28.0155029</ele>
        <time>2010-11-07T09:25:57Z</time>
      </trkpt>
      <trkpt lat="47.19086" lon="-1.69425">
        <ele>21.7669678</ele>
        <time>2010-11-07T09:26:19Z</time>
      </trkpt>
      <trkpt lat="47.19079" lon="-1.69471">
        <ele>19.3637695</ele>
        <time>2010-11-07T09:26:31Z</time>
      </trkpt>
      <trkpt lat="47.19084" lon="-1.69537">
        <ele>15.9990234</ele>
        <time>2010-11-07T09:26:39Z</time>
      </trkpt>
      <trkpt lat="47.19054" lon="-1.69572">
        <ele>7.347168</ele>
        <time>2010-11-07T09:26:53Z</time>
      </trkpt>
      <trkpt lat="47.1903" lon="-1.69509">
        <ele>16.4797363</ele>
        <time>2010-11-07T09:27:43Z</time>
      </trkpt>
      <trkpt lat="47.18991" lon="-1.69449">
        <ele>28.9769287</ele>
        <time>2010-11-07T09:28:19Z</time>
      </trkpt>
      <trkpt lat="47.18954" lon="-1.69438">
        <ele>28.0155029</ele>
        <time>2010-11-07T09:28:43Z</time>
      </trkpt>
      <trkpt lat="47.18915" lon="-1.69363">
        <ele>25.6123047</ele>
        <time>2010-11-07T09:29:41Z</time>
      </trkpt>
      <trkpt lat="47.18928" lon="-1.69402">
        <ele>32.3415527</ele>
        <time>2010-11-07T09:30:14Z</time>
      </trkpt>
      <trkpt lat="47.18908" lon="-1.69461">
        <ele>26.0928955</ele>
        <time>2010-11-07T09:30:34Z</time>
      </trkpt>
      <trkpt lat="47.18873" lon="-1.69509">
        <ele>20.8056641</ele>
        <time>2010-11-07T09:30:53Z</time>
      </trkpt>
      <trkpt lat="47.1889" lon="-1.69548">
        <ele>24.1702881</ele>
        <time>2010-11-07T09:31:16Z</time>
      </trkpt>
      <trkpt lat="47.18936" lon="-1.69564">
        <ele>33.7834473</ele>
        <time>2010-11-07T09:31:36Z</time>
      </trkpt>
      <trkpt lat="47.18984" lon="-1.69608">
        <ele>35.2254639</ele>
        <time>2010-11-07T09:31:54Z</time>
      </trkpt>
      <trkpt lat="47.19029" lon="-1.69629">
        <ele>36.6674805</ele>
        <time>2010-11-07T09:32:16Z</time>
      </trkpt>
      <trkpt lat="47.19036" lon="-1.69682">
        <ele>33.3028564</ele>
        <time>2010-11-07T09:32:51Z</time>
      </trkpt>
      <trkpt lat="47.19035" lon="-1.69748">
        <ele>22.7282715</ele>
        <time>2010-11-07T09:33:12Z</time>
      </trkpt>
      <trkpt lat="47.19037" lon="-1.69813">
        <ele>18.4023438</ele>
        <time>2010-11-07T09:33:36Z</time>
      </trkpt>
      <trkpt lat="47.19058" lon="-1.69876">
        <ele>13.1151123</ele>
        <time>2010-11-07T09:33:57Z</time>
      </trkpt>
      <trkpt lat="47.19047" lon="-1.69883">
        <ele>11.1925049</ele>
        <time>2010-11-07T09:34:16Z</time>
      </trkpt>
      <trkpt lat="47.19012" lon="-1.69919">
        <ele>8.7891846</ele>
        <time>2010-11-07T09:34:29Z</time>
      </trkpt>
      <trkpt lat="47.18978" lon="-1.69965">
        <ele>11.1925049</ele>
        <time>2010-11-07T09:34:44Z</time>
      </trkpt>
      <trkpt lat="47.18948" lon="-1.70015">
        <ele>14.076416</ele>
        <time>2010-11-07T09:35:03Z</time>
      </trkpt>
      <trkpt lat="47.18954" lon="-1.70077">
        <ele>13.5958252</ele>
        <time>2010-11-07T09:35:22Z</time>
      </trkpt>
      <trkpt lat="47.18947" lon="-1.70141">
        <ele>10.711792</ele>
        <time>2010-11-07T09:35:55Z</time>
      </trkpt>
      <trkpt lat="47.18932" lon="-1.70189">
        <ele>11.6732178</ele>
        <time>2010-11-07T09:36:08Z</time>
      </trkpt>
      <trkpt lat="47.18884" lon="-1.70202">
        <ele>10.711792</ele>
        <time>2010-11-07T09:36:18Z</time>
      </trkpt>
      <trkpt lat="47.18836" lon="-1.70215">
        <ele>9.7506104</ele>
        <time>2010-11-07T09:36:28Z</time>
      </trkpt>
      <trkpt lat="47.18796" lon="-1.70256">
        <ele>9.7506104</ele>
        <time>2010-11-07T09:36:43Z</time>
      </trkpt>
      <trkpt lat="47.18745" lon="-1.70272">
        <ele>13.5958252</ele>
        <time>2010-11-07T09:37:02Z</time>
      </trkpt>
      <trkpt lat="47.18684" lon="-1.70285">
        <ele>15.0377197</ele>
        <time>2010-11-07T09:37:24Z</time>
      </trkpt>
      <trkpt lat="47.18634" lon="-1.70308">
        <ele>17.4411621</ele>
        <time>2010-11-07T09:37:44Z</time>
      </trkpt>
      <trkpt lat="47.18584" lon="-1.70334">
        <ele>19.8443604</ele>
        <time>2010-11-07T09:38:08Z</time>
      </trkpt>
      <trkpt lat="47.1854" lon="-1.70329">
        <ele>23.6895752</ele>
        <time>2010-11-07T09:38:26Z</time>
      </trkpt>
      <trkpt lat="47.18491" lon="-1.70321">
        <ele>22.7282715</ele>
        <time>2010-11-07T09:38:41Z</time>
      </trkpt>
      <trkpt lat="47.18443" lon="-1.70307">
        <ele>23.2089844</ele>
        <time>2010-11-07T09:38:53Z</time>
      </trkpt>
      <trkpt lat="47.18395" lon="-1.70292">
        <ele>25.6123047</ele>
        <time>2010-11-07T09:39:07Z</time>
      </trkpt>
      <trkpt lat="47.18361" lon="-1.70248">
        <ele>26.5736084</ele>
        <time>2010-11-07T09:39:19Z</time>
      </trkpt>
      <trkpt lat="47.18314" lon="-1.70226">
        <ele>27.0543213</ele>
        <time>2010-11-07T09:39:30Z</time>
      </trkpt>
      <trkpt lat="47.18267" lon="-1.70215">
        <ele>27.0543213</ele>
        <time>2010-11-07T09:39:42Z</time>
      </trkpt>
      <trkpt lat="47.18223" lon="-1.70234">
        <ele>26.5736084</ele>
        <time>2010-11-07T09:39:56Z</time>
      </trkpt>
      <trkpt lat="47.18184" lon="-1.70276">
        <ele>28.9769287</ele>
        <time>2010-11-07T09:40:08Z</time>
      </trkpt>
      <trkpt lat="47.18141" lon="-1.70305">
        <ele>28.0155029</ele>
        <time>2010-11-07T09:40:20Z</time>
      </trkpt>
      <trkpt lat="47.18093" lon="-1.703">
        <ele>27.0543213</ele>
        <time>2010-11-07T09:40:31Z</time>
      </trkpt>
      <trkpt lat="47.18047" lon="-1.703">
        <ele>27.5349121</ele>
        <time>2010-11-07T09:40:42Z</time>
      </trkpt>
      <trkpt lat="47.18038" lon="-1.70364">
        <ele>28.9769287</ele>
        <time>2010-11-07T09:40:54Z</time>
      </trkpt>
      <trkpt lat="47.18032" lon="-1.70432">
        <ele>28.9769287</ele>
        <time>2010-11-07T09:41:04Z</time>
      </trkpt>
      <trkpt lat="47.18011" lon="-1.70487">
        <ele>31.380127</ele>
        <time>2010-11-07T09:41:14Z</time>
      </trkpt>
      <trkpt lat="47.17965" lon="-1.70506">
        <ele>31.380127</ele>
        <time>2010-11-07T09:41:24Z</time>
      </trkpt>
      <trkpt lat="47.17919" lon="-1.70523">
        <ele>32.3415527</ele>
        <time>2010-11-07T09:41:34Z</time>
      </trkpt>
      <trkpt lat="47.17874" lon="-1.70541">
        <ele>32.3415527</ele>
        <time>2010-11-07T09:41:44Z</time>
      </trkpt>
      <trkpt lat="47.17831" lon="-1.70557">
        <ele>32.8222656</ele>
        <time>2010-11-07T09:41:54Z</time>
      </trkpt>
      <trkpt lat="47.1783" lon="-1.70615">
        <ele>32.8222656</ele>
        <time>2010-11-07T09:42:03Z</time>
      </trkpt>
      <trkpt lat="47.17854" lon="-1.70673">
        <ele>32.3415527</ele>
        <time>2010-11-07T09:42:12Z</time>
      </trkpt>
      <trkpt lat="47.17841" lon="-1.70672">
        <ele>32.3415527</ele>
        <time>2010-11-07T09:42:24Z</time>
      </trkpt>
      <trkpt lat="47.17822" lon="-1.70608">
        <ele>32.3415527</ele>
        <time>2010-11-07T09:42:34Z</time>
      </trkpt>
      <trkpt lat="47.17803" lon="-1.70543">
        <ele>32.3415527</ele>
        <time>2010-11-07T09:42:44Z</time>
      </trkpt>
      <trkpt lat="47.17795" lon="-1.70476">
        <ele>31.8607178</ele>
        <time>2010-11-07T09:42:53Z</time>
      </trkpt>
      <trkpt lat="47.17792" lon="-1.70403">
        <ele>32.3415527</ele>
        <time>2010-11-07T09:43:03Z</time>
      </trkpt>
      <trkpt lat="47.1779" lon="-1.70333">
        <ele>32.8222656</ele>
        <time>2010-11-07T09:43:13Z</time>
      </trkpt>
      <trkpt lat="47.17774" lon="-1.70271">
        <ele>33.7834473</ele>
        <time>2010-11-07T09:43:24Z</time>
      </trkpt>
      <trkpt lat="47.17747" lon="-1.70253">
        <ele>33.7834473</ele>
        <time>2010-11-07T09:45:14Z</time>
      </trkpt>
      <trkpt lat="47.17709" lon="-1.70286">
        <ele>34.2641602</ele>
        <time>2010-11-07T09:45:25Z</time>
      </trkpt>
      <trkpt lat="47.1767" lon="-1.70331">
        <ele>34.2641602</ele>
        <time>2010-11-07T09:45:37Z</time>
      </trkpt>
      <trkpt lat="47.17636" lon="-1.70376">
        <ele>33.3028564</ele>
        <time>2010-11-07T09:45:47Z</time>
      </trkpt>
      <trkpt lat="47.17615" lon="-1.70436">
        <ele>31.8607178</ele>
        <time>2010-11-07T09:45:56Z</time>
      </trkpt>
      <trkpt lat="47.17627" lon="-1.70498">
        <ele>30.4188232</ele>
        <time>2010-11-07T09:46:05Z</time>
      </trkpt>
      <trkpt lat="47.17664" lon="-1.70536">
        <ele>28.4962158</ele>
        <time>2010-11-07T09:46:13Z</time>
      </trkpt>
      <trkpt lat="47.17703" lon="-1.70574">
        <ele>28.0155029</ele>
        <time>2010-11-07T09:46:22Z</time>
      </trkpt>
      <trkpt lat="47.17733" lon="-1.70623">
        <ele>27.5349121</ele>
        <time>2010-11-07T09:46:31Z</time>
      </trkpt>
      <trkpt lat="47.17755" lon="-1.70683">
        <ele>27.5349121</ele>
        <time>2010-11-07T09:46:40Z</time>
      </trkpt>
      <trkpt lat="47.17777" lon="-1.70746">
        <ele>27.0543213</ele>
        <time>2010-11-07T09:46:50Z</time>
      </trkpt>
      <trkpt lat="47.17798" lon="-1.70811">
        <ele>27.5349121</ele>
        <time>2010-11-07T09:47:00Z</time>
      </trkpt>
      <trkpt lat="47.17819" lon="-1.7087">
        <ele>27.0543213</ele>
        <time>2010-11-07T09:47:09Z</time>
      </trkpt>
      <trkpt lat="47.1784" lon="-1.70932">
        <ele>27.5349121</ele>
        <time>2010-11-07T09:47:18Z</time>
      </trkpt>
      <trkpt lat="47.17865" lon="-1.7099">
        <ele>27.0543213</ele>
        <time>2010-11-07T09:47:27Z</time>
      </trkpt>
      <trkpt lat="47.17889" lon="-1.7105">
        <ele>27.5349121</ele>
        <time>2010-11-07T09:47:36Z</time>
      </trkpt>
      <trkpt lat="47.17897" lon="-1.71113">
        <ele>27.5349121</ele>
        <time>2010-11-07T09:47:46Z</time>
      </trkpt>
      <trkpt lat="47.17873" lon="-1.71177">
        <ele>27.5349121</ele>
        <time>2010-11-07T09:47:55Z</time>
      </trkpt>
      <trkpt lat="47.17851" lon="-1.71243">
        <ele>27.5349121</ele>
        <time>2010-11-07T09:48:04Z</time>
      </trkpt>
      <trkpt lat="47.17829" lon="-1.71305">
        <ele>28.0155029</ele>
        <time>2010-11-07T09:48:13Z</time>
      </trkpt>
      <trkpt lat="47.17809" lon="-1.71366">
        <ele>28.0155029</ele>
        <time>2010-11-07T09:48:21Z</time>
      </trkpt>
      <trkpt lat="47.17788" lon="-1.71429">
        <ele>28.0155029</ele>
        <time>2010-11-07T09:48:29Z</time>
      </trkpt>
      <trkpt lat="47.17767" lon="-1.71495">
        <ele>28.4962158</ele>
        <time>2010-11-07T09:48:38Z</time>
      </trkpt>
      <trkpt lat="47.17749" lon="-1.71561">
        <ele>28.4962158</ele>
        <time>2010-11-07T09:48:47Z</time>
      </trkpt>
      <trkpt lat="47.17755" lon="-1.71623">
        <ele>28.4962158</ele>
        <time>2010-11-07T09:48:57Z</time>
      </trkpt>
      <trkpt lat="47.17784" lon="-1.71674">
        <ele>28.0155029</ele>
        <time>2010-11-07T09:49:05Z</time>
      </trkpt>
      <trkpt lat="47.17815" lon="-1.71729">
        <ele>28.0155029</ele>
        <time>2010-11-07T09:49:14Z</time>
      </trkpt>
      <trkpt lat="47.17846" lon="-1.71783">
        <ele>27.0543213</ele>
        <time>2010-11-07T09:49:24Z</time>
      </trkpt>
      <trkpt lat="47.17856" lon="-1.7185">
        <ele>26.0928955</ele>
        <time>2010-11-07T09:49:33Z</time>
      </trkpt>
      <trkpt lat="47.17865" lon="-1.71919">
        <ele>26.0928955</ele>
        <time>2010-11-07T09:49:42Z</time>
      </trkpt>
      <trkpt lat="47.17875" lon="-1.71985">
        <ele>26.0928955</ele>
        <time>2010-11-07T09:49:50Z</time>
      </trkpt>
      <trkpt lat="47.17883" lon="-1.72053">
        <ele>25.1317139</ele>
        <time>2010-11-07T09:49:58Z</time>
      </trkpt>
      <trkpt lat="47.17885" lon="-1.72123">
        <ele>24.1702881</ele>
        <time>2010-11-07T09:50:06Z</time>
      </trkpt>
      <trkpt lat="47.17885" lon="-1.72198">
        <ele>23.2089844</ele>
        <time>2010-11-07T09:50:14Z</time>
      </trkpt>
      <trkpt lat="47.1789" lon="-1.72267">
        <ele>22.2475586</ele>
        <time>2010-11-07T09:50:22Z</time>
      </trkpt>
      <trkpt lat="47.17928" lon="-1.72307">
        <ele>22.2475586</ele>
        <time>2010-11-07T09:50:31Z</time>
      </trkpt>
      <trkpt lat="47.17967" lon="-1.72351">
        <ele>22.2475586</ele>
        <time>2010-11-07T09:50:39Z</time>
      </trkpt>
      <trkpt lat="47.18004" lon="-1.72397">
        <ele>21.7669678</ele>
        <time>2010-11-07T09:50:47Z</time>
      </trkpt>
      <trkpt lat="47.18024" lon="-1.72461">
        <ele>21.286377</ele>
        <time>2010-11-07T09:50:55Z</time>
      </trkpt>
      <trkpt lat="47.17992" lon="-1.72504">
        <ele>20.8056641</ele>
        <time>2010-11-07T09:51:05Z</time>
      </trkpt>
      <trkpt lat="47.17946" lon="-1.7253">
        <ele>19.3637695</ele>
        <time>2010-11-07T09:51:13Z</time>
      </trkpt>
      <trkpt lat="47.17899" lon="-1.72558">
        <ele>18.8830566</ele>
        <time>2010-11-07T09:51:21Z</time>
      </trkpt>
      <trkpt lat="47.1786" lon="-1.72592">
        <ele>17.9217529</ele>
        <time>2010-11-07T09:51:28Z</time>
      </trkpt>
      <trkpt lat="47.17825" lon="-1.72638">
        <ele>18.4023438</ele>
        <time>2010-11-07T09:51:36Z</time>
      </trkpt>
      <trkpt lat="47.17787" lon="-1.72678">
        <ele>16.9604492</ele>
        <time>2010-11-07T09:51:44Z</time>
      </trkpt>
      <trkpt lat="47.17747" lon="-1.72724">
        <ele>15.5184326</ele>
        <time>2010-11-07T09:51:53Z</time>
      </trkpt>
      <trkpt lat="47.17709" lon="-1.72766">
        <ele>14.5570068</ele>
        <time>2010-11-07T09:52:01Z</time>
      </trkpt>
      <trkpt lat="47.17667" lon="-1.72794">
        <ele>14.5570068</ele>
        <time>2010-11-07T09:52:09Z</time>
      </trkpt>
      <trkpt lat="47.17622" lon="-1.72821">
        <ele>14.5570068</ele>
        <time>2010-11-07T09:52:17Z</time>
      </trkpt>
      <trkpt lat="47.1758" lon="-1.72852">
        <ele>14.076416</ele>
        <time>2010-11-07T09:52:25Z</time>
      </trkpt>
      <trkpt lat="47.17538" lon="-1.72884">
        <ele>13.5958252</ele>
        <time>2010-11-07T09:52:33Z</time>
      </trkpt>
      <trkpt lat="47.1749" lon="-1.729">
        <ele>14.076416</ele>
        <time>2010-11-07T09:52:42Z</time>
      </trkpt>
      <trkpt lat="47.17445" lon="-1.72887">
        <ele>13.5958252</ele>
        <time>2010-11-07T09:52:52Z</time>
      </trkpt>
      <trkpt lat="47.17405" lon="-1.72857">
        <ele>15.0377197</ele>
        <time>2010-11-07T09:53:02Z</time>
      </trkpt>
      <trkpt lat="47.17423" lon="-1.72911">
        <ele>14.5570068</ele>
        <time>2010-11-07T09:53:13Z</time>
      </trkpt>
      <trkpt lat="47.17448" lon="-1.72965">
        <ele>13.5958252</ele>
        <time>2010-11-07T09:53:21Z</time>
      </trkpt>
      <trkpt lat="47.17468" lon="-1.7303">
        <ele>13.1151123</ele>
        <time>2010-11-07T09:53:30Z</time>
      </trkpt>
      <trkpt lat="47.17487" lon="-1.73098">
        <ele>14.076416</ele>
        <time>2010-11-07T09:53:40Z</time>
      </trkpt>
      <trkpt lat="47.17509" lon="-1.73161">
        <ele>15.5184326</ele>
        <time>2010-11-07T09:53:50Z</time>
      </trkpt>
      <trkpt lat="47.17531" lon="-1.73225">
        <ele>17.4411621</ele>
        <time>2010-11-07T09:54:00Z</time>
      </trkpt>
      <trkpt lat="47.17551" lon="-1.7329">
        <ele>19.8443604</ele>
        <time>2010-11-07T09:54:11Z</time>
      </trkpt>
      <trkpt lat="47.17571" lon="-1.73354">
        <ele>20.8056641</ele>
        <time>2010-11-07T09:54:22Z</time>
      </trkpt>
      <trkpt lat="47.17597" lon="-1.73411">
        <ele>20.3249512</ele>
        <time>2010-11-07T09:54:33Z</time>
      </trkpt>
      <trkpt lat="47.17629" lon="-1.73456">
        <ele>18.8830566</ele>
        <time>2010-11-07T09:54:51Z</time>
      </trkpt>
      <trkpt lat="47.17631" lon="-1.73523">
        <ele>18.8830566</ele>
        <time>2010-11-07T09:55:06Z</time>
      </trkpt>
      <trkpt lat="47.17629" lon="-1.73589">
        <ele>17.9217529</ele>
        <time>2010-11-07T09:55:17Z</time>
      </trkpt>
      <trkpt lat="47.17629" lon="-1.73657">
        <ele>15.0377197</ele>
        <time>2010-11-07T09:55:27Z</time>
      </trkpt>
      <trkpt lat="47.1763" lon="-1.73725">
        <ele>13.1151123</ele>
        <time>2010-11-07T09:55:36Z</time>
      </trkpt>
      <trkpt lat="47.17631" lon="-1.73795">
        <ele>11.6732178</ele>
        <time>2010-11-07T09:55:45Z</time>
      </trkpt>
      <trkpt lat="47.17615" lon="-1.73851">
        <ele>8.7891846</ele>
        <time>2010-11-07T09:55:56Z</time>
      </trkpt>
      <trkpt lat="47.17597" lon="-1.73894">
        <ele>6.3858643</ele>
        <time>2010-11-07T09:56:08Z</time>
      </trkpt>
      <trkpt lat="47.17588" lon="-1.73956">
        <ele>5.4245605</ele>
        <time>2010-11-07T09:56:18Z</time>
      </trkpt>
      <trkpt lat="47.17551" lon="-1.73996">
        <ele>5.9052734</ele>
        <time>2010-11-07T09:56:28Z</time>
      </trkpt>
      <trkpt lat="47.17541" lon="-1.74055">
        <ele>6.3858643</ele>
        <time>2010-11-07T09:56:40Z</time>
      </trkpt>
      <trkpt lat="47.1756" lon="-1.74117">
        <ele>10.711792</ele>
        <time>2010-11-07T09:56:57Z</time>
      </trkpt>
      <trkpt lat="47.17572" lon="-1.74182">
        <ele>8.7891846</ele>
        <time>2010-11-07T09:57:10Z</time>
      </trkpt>
      <trkpt lat="47.17582" lon="-1.74249">
        <ele>4.4632568</ele>
        <time>2010-11-07T09:57:18Z</time>
      </trkpt>
      <trkpt lat="47.17607" lon="-1.7431">
        <ele>-3.2272949</ele>
        <time>2010-11-07T09:57:33Z</time>
      </trkpt>
      <trkpt lat="47.17634" lon="-1.74382">
        <ele>-6.5919189</ele>
        <time>2010-11-07T09:57:51Z</time>
      </trkpt>
      <trkpt lat="47.17641" lon="-1.74451">
        <ele>-3.7078857</ele>
        <time>2010-11-07T09:58:06Z</time>
      </trkpt>
      <trkpt lat="47.17657" lon="-1.74514">
        <ele>-2.7467041</ele>
        <time>2010-11-07T09:58:18Z</time>
      </trkpt>
      <trkpt lat="47.17656" lon="-1.74582">
        <ele>-0.8240967</ele>
        <time>2010-11-07T09:58:32Z</time>
      </trkpt>
      <trkpt lat="47.17651" lon="-1.7465">
        <ele>2.0600586</ele>
        <time>2010-11-07T09:58:45Z</time>
      </trkpt>
      <trkpt lat="47.1762" lon="-1.74688">
        <ele>7.8278809</ele>
        <time>2010-11-07T09:59:00Z</time>
      </trkpt>
      <trkpt lat="47.17622" lon="-1.74707">
        <ele>8.7891846</ele>
        <time>2010-11-07T09:59:19Z</time>
      </trkpt>
      <trkpt lat="47.17604" lon="-1.7477">
        <ele>5.4245605</ele>
        <time>2010-11-07T09:59:38Z</time>
      </trkpt>
      <trkpt lat="47.17592" lon="-1.7484">
        <ele>12.6343994</ele>
        <time>2010-11-07T10:00:04Z</time>
      </trkpt>
      <trkpt lat="47.17575" lon="-1.74912">
        <ele>19.8443604</ele>
        <time>2010-11-07T10:00:27Z</time>
      </trkpt>
      <trkpt lat="47.17595" lon="-1.74954">
        <ele>20.3249512</ele>
        <time>2010-11-07T10:00:46Z</time>
      </trkpt>
      <trkpt lat="47.17623" lon="-1.74991">
        <ele>20.8056641</ele>
        <time>2010-11-07T10:01:04Z</time>
      </trkpt>
      <trkpt lat="47.17611" lon="-1.75056">
        <ele>22.7282715</ele>
        <time>2010-11-07T10:01:19Z</time>
      </trkpt>
      <trkpt lat="47.17612" lon="-1.75117">
        <ele>22.7282715</ele>
        <time>2010-11-07T10:01:34Z</time>
      </trkpt>
      <trkpt lat="47.17593" lon="-1.75171">
        <ele>24.1702881</ele>
        <time>2010-11-07T10:01:49Z</time>
      </trkpt>
      <trkpt lat="47.17547" lon="-1.75158">
        <ele>22.7282715</ele>
        <time>2010-11-07T10:02:01Z</time>
      </trkpt>
      <trkpt lat="47.175" lon="-1.75136">
        <ele>21.286377</ele>
        <time>2010-11-07T10:02:12Z</time>
      </trkpt>
      <trkpt lat="47.17455" lon="-1.75132">
        <ele>21.286377</ele>
        <time>2010-11-07T10:02:22Z</time>
      </trkpt>
      <trkpt lat="47.17437" lon="-1.75182">
        <ele>18.8830566</ele>
        <time>2010-11-07T10:02:33Z</time>
      </trkpt>
      <trkpt lat="47.17439" lon="-1.75251">
        <ele>15.9990234</ele>
        <time>2010-11-07T10:02:42Z</time>
      </trkpt>
      <trkpt lat="47.17445" lon="-1.75323">
        <ele>15.5184326</ele>
        <time>2010-11-07T10:02:51Z</time>
      </trkpt>
      <trkpt lat="47.17456" lon="-1.75393">
        <ele>11.1925049</ele>
        <time>2010-11-07T10:03:01Z</time>
      </trkpt>
      <trkpt lat="47.17456" lon="-1.7546">
        <ele>9.2698975</ele>
        <time>2010-11-07T10:03:10Z</time>
      </trkpt>
      <trkpt lat="47.17476" lon="-1.75528">
        <ele>7.347168</ele>
        <time>2010-11-07T10:03:18Z</time>
      </trkpt>
      <trkpt lat="47.17492" lon="-1.75598">
        <ele>5.9052734</ele>
        <time>2010-11-07T10:03:26Z</time>
      </trkpt>
      <trkpt lat="47.17513" lon="-1.7566">
        <ele>5.9052734</ele>
        <time>2010-11-07T10:03:35Z</time>
      </trkpt>
      <trkpt lat="47.17532" lon="-1.7572">
        <ele>6.8664551</ele>
        <time>2010-11-07T10:03:47Z</time>
      </trkpt>
      <trkpt lat="47.17504" lon="-1.75779">
        <ele>7.347168</ele>
        <time>2010-11-07T10:03:55Z</time>
      </trkpt>
      <trkpt lat="47.17474" lon="-1.75838">
        <ele>8.3085938</ele>
        <time>2010-11-07T10:04:03Z</time>
      </trkpt>
      <trkpt lat="47.17436" lon="-1.7588">
        <ele>8.7891846</ele>
        <time>2010-11-07T10:04:11Z</time>
      </trkpt>
      <trkpt lat="47.17406" lon="-1.75935">
        <ele>7.8278809</ele>
        <time>2010-11-07T10:04:19Z</time>
      </trkpt>
      <trkpt lat="47.17373" lon="-1.75991">
        <ele>7.8278809</ele>
        <time>2010-11-07T10:04:28Z</time>
      </trkpt>
      <trkpt lat="47.17335" lon="-1.76038">
        <ele>7.347168</ele>
        <time>2010-11-07T10:04:36Z</time>
      </trkpt>
      <trkpt lat="47.17296" lon="-1.76064">
        <ele>6.8664551</ele>
        <time>2010-11-07T10:04:45Z</time>
      </trkpt>
      <trkpt lat="47.17258" lon="-1.76036">
        <ele>4.9438477</ele>
        <time>2010-11-07T10:04:53Z</time>
      </trkpt>
      <trkpt lat="47.17216" lon="-1.76065">
        <ele>4.9438477</ele>
        <time>2010-11-07T10:05:00Z</time>
      </trkpt>
      <trkpt lat="47.17175" lon="-1.76106">
        <ele>4.9438477</ele>
        <time>2010-11-07T10:05:08Z</time>
      </trkpt>
      <trkpt lat="47.17137" lon="-1.76097">
        <ele>3.5019531</ele>
        <time>2010-11-07T10:05:19Z</time>
      </trkpt>
      <trkpt lat="47.17105" lon="-1.76046">
        <ele>4.4632568</ele>
        <time>2010-11-07T10:05:29Z</time>
      </trkpt>
      <trkpt lat="47.17074" lon="-1.75995">
        <ele>4.9438477</ele>
        <time>2010-11-07T10:05:38Z</time>
      </trkpt>
      <trkpt lat="47.17045" lon="-1.75945">
        <ele>3.982666</ele>
        <time>2010-11-07T10:05:47Z</time>
      </trkpt>
      <trkpt lat="47.17013" lon="-1.75892">
        <ele>3.0212402</ele>
        <time>2010-11-07T10:05:57Z</time>
      </trkpt>
      <trkpt lat="47.17002" lon="-1.75823">
        <ele>2.0600586</ele>
        <time>2010-11-07T10:06:07Z</time>
      </trkpt>
      <trkpt lat="47.17008" lon="-1.75763">
        <ele>3.982666</ele>
        <time>2010-11-07T10:06:20Z</time>
      </trkpt>
      <trkpt lat="47.1698" lon="-1.75701">
        <ele>7.8278809</ele>
        <time>2010-11-07T10:06:33Z</time>
      </trkpt>
      <trkpt lat="47.16957" lon="-1.7564">
        <ele>9.7506104</ele>
        <time>2010-11-07T10:06:45Z</time>
      </trkpt>
      <trkpt lat="47.16935" lon="-1.7558">
        <ele>9.2698975</ele>
        <time>2010-11-07T10:06:56Z</time>
      </trkpt>
      <trkpt lat="47.16915" lon="-1.75515">
        <ele>8.3085938</ele>
        <time>2010-11-07T10:07:06Z</time>
      </trkpt>
      <trkpt lat="47.16913" lon="-1.75444">
        <ele>5.9052734</ele>
        <time>2010-11-07T10:07:15Z</time>
      </trkpt>
      <trkpt lat="47.16947" lon="-1.75392">
        <ele>6.8664551</ele>
        <time>2010-11-07T10:07:25Z</time>
      </trkpt>
      <trkpt lat="47.16938" lon="-1.75323">
        <ele>7.347168</ele>
        <time>2010-11-07T10:07:35Z</time>
      </trkpt>
      <trkpt lat="47.16919" lon="-1.75258">
        <ele>7.347168</ele>
        <time>2010-11-07T10:07:45Z</time>
      </trkpt>
      <trkpt lat="47.16941" lon="-1.75201">
        <ele>10.2312012</ele>
        <time>2010-11-07T10:07:56Z</time>
      </trkpt>
      <trkpt lat="47.16947" lon="-1.75133">
        <ele>13.5958252</ele>
        <time>2010-11-07T10:08:10Z</time>
      </trkpt>
      <trkpt lat="47.16952" lon="-1.75065">
        <ele>17.4411621</ele>
        <time>2010-11-07T10:08:26Z</time>
      </trkpt>
      <trkpt lat="47.16948" lon="-1.74998">
        <ele>20.8056641</ele>
        <time>2010-11-07T10:08:41Z</time>
      </trkpt>
      <trkpt lat="47.1691" lon="-1.74954">
        <ele>20.8056641</ele>
        <time>2010-11-07T10:08:53Z</time>
      </trkpt>
      <trkpt lat="47.16883" lon="-1.74892">
        <ele>17.4411621</ele>
        <time>2010-11-07T10:09:02Z</time>
      </trkpt>
      <trkpt lat="47.16855" lon="-1.74826">
        <ele>15.9990234</ele>
        <time>2010-11-07T10:09:10Z</time>
      </trkpt>
      <trkpt lat="47.16818" lon="-1.74771">
        <ele>14.5570068</ele>
        <time>2010-11-07T10:09:17Z</time>
      </trkpt>
      <trkpt lat="47.16772" lon="-1.74731">
        <ele>13.5958252</ele>
        <time>2010-11-07T10:09:24Z</time>
      </trkpt>
      <trkpt lat="47.16725" lon="-1.7471">
        <ele>12.1538086</ele>
        <time>2010-11-07T10:09:31Z</time>
      </trkpt>
      <trkpt lat="47.16686" lon="-1.74681">
        <ele>10.711792</ele>
        <time>2010-11-07T10:09:39Z</time>
      </trkpt>
      <trkpt lat="47.16689" lon="-1.74613">
        <ele>7.8278809</ele>
        <time>2010-11-07T10:09:47Z</time>
      </trkpt>
      <trkpt lat="47.16728" lon="-1.74583">
        <ele>6.3858643</ele>
        <time>2010-11-07T10:09:54Z</time>
      </trkpt>
      <trkpt lat="47.16773" lon="-1.74562">
        <ele>4.9438477</ele>
        <time>2010-11-07T10:10:03Z</time>
      </trkpt>
      <trkpt lat="47.16818" lon="-1.74553">
        <ele>3.982666</ele>
        <time>2010-11-07T10:10:12Z</time>
      </trkpt>
      <trkpt lat="47.16865" lon="-1.74547">
        <ele>4.4632568</ele>
        <time>2010-11-07T10:10:22Z</time>
      </trkpt>
      <trkpt lat="47.1691" lon="-1.74581">
        <ele>6.8664551</ele>
        <time>2010-11-07T10:10:32Z</time>
      </trkpt>
      <trkpt lat="47.16957" lon="-1.74583">
        <ele>6.8664551</ele>
        <time>2010-11-07T10:10:42Z</time>
      </trkpt>
      <trkpt lat="47.17001" lon="-1.74557">
        <ele>7.347168</ele>
        <time>2010-11-07T10:10:52Z</time>
      </trkpt>
      <trkpt lat="47.17038" lon="-1.74509">
        <ele>6.8664551</ele>
        <time>2010-11-07T10:11:02Z</time>
      </trkpt>
      <trkpt lat="47.17068" lon="-1.74455">
        <ele>7.8278809</ele>
        <time>2010-11-07T10:11:12Z</time>
      </trkpt>
      <trkpt lat="47.17092" lon="-1.74397">
        <ele>9.7506104</ele>
        <time>2010-11-07T10:11:22Z</time>
      </trkpt>
      <trkpt lat="47.17082" lon="-1.74329">
        <ele>10.711792</ele>
        <time>2010-11-07T10:11:35Z</time>
      </trkpt>
      <trkpt lat="47.17069" lon="-1.74258">
        <ele>13.1151123</ele>
        <time>2010-11-07T10:11:45Z</time>
      </trkpt>
      <trkpt lat="47.17054" lon="-1.74185">
        <ele>13.5958252</ele>
        <time>2010-11-07T10:11:54Z</time>
      </trkpt>
      <trkpt lat="47.1704" lon="-1.74113">
        <ele>11.6732178</ele>
        <time>2010-11-07T10:12:04Z</time>
      </trkpt>
      <trkpt lat="47.17011" lon="-1.74079">
        <ele>10.711792</ele>
        <time>2010-11-07T10:12:16Z</time>
      </trkpt>
      <trkpt lat="47.16969" lon="-1.74107">
        <ele>10.2312012</ele>
        <time>2010-11-07T10:12:25Z</time>
      </trkpt>
      <trkpt lat="47.16926" lon="-1.74136">
        <ele>9.7506104</ele>
        <time>2010-11-07T10:12:35Z</time>
      </trkpt>
      <trkpt lat="47.1688" lon="-1.74164">
        <ele>8.7891846</ele>
        <time>2010-11-07T10:12:45Z</time>
      </trkpt>
      <trkpt lat="47.16833" lon="-1.7418">
        <ele>8.7891846</ele>
        <time>2010-11-07T10:12:55Z</time>
      </trkpt>
      <trkpt lat="47.16784" lon="-1.7419">
        <ele>8.7891846</ele>
        <time>2010-11-07T10:13:05Z</time>
      </trkpt>
      <trkpt lat="47.16736" lon="-1.74178">
        <ele>7.347168</ele>
        <time>2010-11-07T10:13:14Z</time>
      </trkpt>
      <trkpt lat="47.16701" lon="-1.74124">
        <ele>6.3858643</ele>
        <time>2010-11-07T10:13:23Z</time>
      </trkpt>
      <trkpt lat="47.16661" lon="-1.74078">
        <ele>5.4245605</ele>
        <time>2010-11-07T10:13:32Z</time>
      </trkpt>
      <trkpt lat="47.16625" lon="-1.74026">
        <ele>4.4632568</ele>
        <time>2010-11-07T10:13:41Z</time>
      </trkpt>
      <trkpt lat="47.16592" lon="-1.73972">
        <ele>3.5019531</ele>
        <time>2010-11-07T10:13:50Z</time>
      </trkpt>
      <trkpt lat="47.16561" lon="-1.73918">
        <ele>3.5019531</ele>
        <time>2010-11-07T10:13:59Z</time>
      </trkpt>
      <trkpt lat="47.16557" lon="-1.73852">
        <ele>3.5019531</ele>
        <time>2010-11-07T10:14:08Z</time>
      </trkpt>
      <trkpt lat="47.1658" lon="-1.73792">
        <ele>4.4632568</ele>
        <time>2010-11-07T10:14:17Z</time>
      </trkpt>
      <trkpt lat="47.16591" lon="-1.73724">
        <ele>6.8664551</ele>
        <time>2010-11-07T10:14:26Z</time>
      </trkpt>
      <trkpt lat="47.16604" lon="-1.7365">
        <ele>8.7891846</ele>
        <time>2010-11-07T10:14:35Z</time>
      </trkpt>
      <trkpt lat="47.16624" lon="-1.73585">
        <ele>12.1538086</ele>
        <time>2010-11-07T10:14:44Z</time>
      </trkpt>
      <trkpt lat="47.16644" lon="-1.73521">
        <ele>17.4411621</ele>
        <time>2010-11-07T10:14:53Z</time>
      </trkpt>
      <trkpt lat="47.16657" lon="-1.73453">
        <ele>19.8443604</ele>
        <time>2010-11-07T10:15:02Z</time>
      </trkpt>
      <trkpt lat="47.1665" lon="-1.73387">
        <ele>15.5184326</ele>
        <time>2010-11-07T10:15:13Z</time>
      </trkpt>
      <trkpt lat="47.16624" lon="-1.73331">
        <ele>15.5184326</ele>
        <time>2010-11-07T10:15:23Z</time>
      </trkpt>
      <trkpt lat="47.16624" lon="-1.73264">
        <ele>15.5184326</ele>
        <time>2010-11-07T10:15:32Z</time>
      </trkpt>
      <trkpt lat="47.16631" lon="-1.73198">
        <ele>15.9990234</ele>
        <time>2010-11-07T10:15:41Z</time>
      </trkpt>
      <trkpt lat="47.16634" lon="-1.73128">
        <ele>16.4797363</ele>
        <time>2010-11-07T10:15:51Z</time>
      </trkpt>
      <trkpt lat="47.1662" lon="-1.73055">
        <ele>15.5184326</ele>
        <time>2010-11-07T10:16:01Z</time>
      </trkpt>
      <trkpt lat="47.16597" lon="-1.72993">
        <ele>15.9990234</ele>
        <time>2010-11-07T10:16:11Z</time>
      </trkpt>
      <trkpt lat="47.16557" lon="-1.72955">
        <ele>18.4023438</ele>
        <time>2010-11-07T10:16:24Z</time>
      </trkpt>
      <trkpt lat="47.16511" lon="-1.72939">
        <ele>18.4023438</ele>
        <time>2010-11-07T10:16:36Z</time>
      </trkpt>
      <trkpt lat="47.1646" lon="-1.72935">
        <ele>21.286377</ele>
        <time>2010-11-07T10:16:50Z</time>
      </trkpt>
      <trkpt lat="47.16412" lon="-1.7292">
        <ele>22.2475586</ele>
        <time>2010-11-07T10:17:05Z</time>
      </trkpt>
      <trkpt lat="47.16366" lon="-1.72909">
        <ele>22.2475586</ele>
        <time>2010-11-07T10:17:18Z</time>
      </trkpt>
      <trkpt lat="47.16317" lon="-1.72913">
        <ele>22.2475586</ele>
        <time>2010-11-07T10:17:30Z</time>
      </trkpt>
      <trkpt lat="47.16271" lon="-1.72926">
        <ele>20.8056641</ele>
        <time>2010-11-07T10:17:41Z</time>
      </trkpt>
      <trkpt lat="47.16224" lon="-1.72935">
        <ele>20.3249512</ele>
        <time>2010-11-07T10:17:52Z</time>
      </trkpt>
      <trkpt lat="47.16177" lon="-1.72937">
        <ele>21.286377</ele>
        <time>2010-11-07T10:18:05Z</time>
      </trkpt>
      <trkpt lat="47.16132" lon="-1.7293">
        <ele>21.286377</ele>
        <time>2010-11-07T10:18:21Z</time>
      </trkpt>
      <trkpt lat="47.16115" lon="-1.72992">
        <ele>18.8830566</ele>
        <time>2010-11-07T10:18:33Z</time>
      </trkpt>
      <trkpt lat="47.16118" lon="-1.73063">
        <ele>16.9604492</ele>
        <time>2010-11-07T10:18:43Z</time>
      </trkpt>
      <trkpt lat="47.16127" lon="-1.73131">
        <ele>14.5570068</ele>
        <time>2010-11-07T10:18:52Z</time>
      </trkpt>
      <trkpt lat="47.16111" lon="-1.73179">
        <ele>13.5958252</ele>
        <time>2010-11-07T10:19:01Z</time>
      </trkpt>
      <trkpt lat="47.16063" lon="-1.73204">
        <ele>13.1151123</ele>
        <time>2010-11-07T10:19:10Z</time>
      </trkpt>
      <trkpt lat="47.16023" lon="-1.7324">
        <ele>11.1925049</ele>
        <time>2010-11-07T10:19:18Z</time>
      </trkpt>
      <trkpt lat="47.15974" lon="-1.73259">
        <ele>11.1925049</ele>
        <time>2010-11-07T10:19:27Z</time>
      </trkpt>
      <trkpt lat="47.15937" lon="-1.73305">
        <ele>13.1151123</ele>
        <time>2010-11-07T10:19:37Z</time>
      </trkpt>
      <trkpt lat="47.15897" lon="-1.7334">
        <ele>14.5570068</ele>
        <time>2010-11-07T10:19:52Z</time>
      </trkpt>
      <trkpt lat="47.15854" lon="-1.7337">
        <ele>15.9990234</ele>
        <time>2010-11-07T10:20:04Z</time>
      </trkpt>
      <trkpt lat="47.15818" lon="-1.73401">
        <ele>18.8830566</ele>
        <time>2010-11-07T10:20:19Z</time>
      </trkpt>
      <trkpt lat="47.15771" lon="-1.7341">
        <ele>21.286377</ele>
        <time>2010-11-07T10:20:35Z</time>
      </trkpt>
      <trkpt lat="47.15723" lon="-1.73418">
        <ele>20.3249512</ele>
        <time>2010-11-07T10:20:47Z</time>
      </trkpt>
      <trkpt lat="47.15694" lon="-1.73452">
        <ele>19.8443604</ele>
        <time>2010-11-07T10:21:02Z</time>
      </trkpt>
      <trkpt lat="47.15695" lon="-1.73519">
        <ele>19.3637695</ele>
        <time>2010-11-07T10:21:15Z</time>
      </trkpt>
      <trkpt lat="47.15696" lon="-1.73589">
        <ele>18.8830566</ele>
        <time>2010-11-07T10:21:26Z</time>
      </trkpt>
      <trkpt lat="47.15697" lon="-1.73662">
        <ele>17.9217529</ele>
        <time>2010-11-07T10:21:37Z</time>
      </trkpt>
      <trkpt lat="47.15684" lon="-1.73725">
        <ele>16.9604492</ele>
        <time>2010-11-07T10:21:47Z</time>
      </trkpt>
      <trkpt lat="47.15662" lon="-1.73784">
        <ele>17.4411621</ele>
        <time>2010-11-07T10:21:56Z</time>
      </trkpt>
      <trkpt lat="47.15637" lon="-1.73848">
        <ele>16.9604492</ele>
        <time>2010-11-07T10:22:06Z</time>
      </trkpt>
      <trkpt lat="47.15612" lon="-1.73905">
        <ele>15.0377197</ele>
        <time>2010-11-07T10:22:15Z</time>
      </trkpt>
      <trkpt lat="47.15584" lon="-1.73965">
        <ele>13.5958252</ele>
        <time>2010-11-07T10:22:24Z</time>
      </trkpt>
      <trkpt lat="47.15557" lon="-1.74024">
        <ele>13.1151123</ele>
        <time>2010-11-07T10:22:33Z</time>
      </trkpt>
      <trkpt lat="47.15533" lon="-1.74079">
        <ele>12.1538086</ele>
        <time>2010-11-07T10:22:41Z</time>
      </trkpt>
      <trkpt lat="47.15508" lon="-1.74135">
        <ele>9.7506104</ele>
        <time>2010-11-07T10:22:48Z</time>
      </trkpt>
      <trkpt lat="47.15481" lon="-1.74194">
        <ele>5.9052734</ele>
        <time>2010-11-07T10:22:56Z</time>
      </trkpt>
      <trkpt lat="47.15442" lon="-1.74196">
        <ele>2.0600586</ele>
        <time>2010-11-07T10:23:06Z</time>
      </trkpt>
      <trkpt lat="47.15415" lon="-1.74136">
        <ele>2.0600586</ele>
        <time>2010-11-07T10:23:16Z</time>
      </trkpt>
      <trkpt lat="47.1539" lon="-1.74079">
        <ele>3.0212402</ele>
        <time>2010-11-07T10:23:25Z</time>
      </trkpt>
      <trkpt lat="47.15347" lon="-1.74049">
        <ele>3.5019531</ele>
        <time>2010-11-07T10:23:35Z</time>
      </trkpt>
      <trkpt lat="47.15308" lon="-1.74028">
        <ele>4.9438477</ele>
        <time>2010-11-07T10:23:45Z</time>
      </trkpt>
      <trkpt lat="47.15258" lon="-1.74035">
        <ele>4.4632568</ele>
        <time>2010-11-07T10:23:55Z</time>
      </trkpt>
      <trkpt lat="47.15209" lon="-1.74041">
        <ele>4.4632568</ele>
        <time>2010-11-07T10:24:06Z</time>
      </trkpt>
      <trkpt lat="47.15164" lon="-1.74018">
        <ele>5.9052734</ele>
        <time>2010-11-07T10:24:20Z</time>
      </trkpt>
      <trkpt lat="47.15118" lon="-1.74004">
        <ele>3.0212402</ele>
        <time>2010-11-07T10:24:32Z</time>
      </trkpt>
      <trkpt lat="47.15069" lon="-1.7402">
        <ele>4.9438477</ele>
        <time>2010-11-07T10:24:53Z</time>
      </trkpt>
      <trkpt lat="47.15022" lon="-1.74039">
        <ele>9.7506104</ele>
        <time>2010-11-07T10:25:16Z</time>
      </trkpt>
      <trkpt lat="47.14971" lon="-1.74051">
        <ele>14.5570068</ele>
        <time>2010-11-07T10:25:40Z</time>
      </trkpt>
      <trkpt lat="47.14949" lon="-1.74003">
        <ele>17.9217529</ele>
        <time>2010-11-07T10:26:00Z</time>
      </trkpt>
      <trkpt lat="47.14946" lon="-1.73935">
        <ele>18.8830566</ele>
        <time>2010-11-07T10:26:14Z</time>
      </trkpt>
      <trkpt lat="47.14947" lon="-1.73865">
        <ele>18.4023438</ele>
        <time>2010-11-07T10:26:26Z</time>
      </trkpt>
      <trkpt lat="47.14909" lon="-1.73854">
        <ele>16.9604492</ele>
        <time>2010-11-07T10:26:40Z</time>
      </trkpt>
      <trkpt lat="47.14862" lon="-1.73865">
        <ele>17.9217529</ele>
        <time>2010-11-07T10:26:54Z</time>
      </trkpt>
      <trkpt lat="47.14815" lon="-1.73874">
        <ele>20.8056641</ele>
        <time>2010-11-07T10:27:20Z</time>
      </trkpt>
      <trkpt lat="47.14766" lon="-1.73879">
        <ele>23.2089844</ele>
        <time>2010-11-07T10:27:35Z</time>
      </trkpt>
      <trkpt lat="47.14718" lon="-1.73881">
        <ele>24.1702881</ele>
        <time>2010-11-07T10:27:48Z</time>
      </trkpt>
      <trkpt lat="47.1468" lon="-1.73884">
        <ele>26.5736084</ele>
        <time>2010-11-07T10:28:01Z</time>
      </trkpt>
      <trkpt lat="47.14652" lon="-1.73829">
        <ele>28.0155029</ele>
        <time>2010-11-07T10:28:13Z</time>
      </trkpt>
      <trkpt lat="47.14618" lon="-1.7381">
        <ele>28.0155029</ele>
        <time>2010-11-07T10:28:26Z</time>
      </trkpt>
      <trkpt lat="47.1458" lon="-1.73847">
        <ele>28.0155029</ele>
        <time>2010-11-07T10:28:39Z</time>
      </trkpt>
      <trkpt lat="47.14538" lon="-1.73881">
        <ele>28.4962158</ele>
        <time>2010-11-07T10:28:53Z</time>
      </trkpt>
      <trkpt lat="47.14495" lon="-1.73906">
        <ele>29.4575195</ele>
        <time>2010-11-07T10:29:07Z</time>
      </trkpt>
      <trkpt lat="47.1445" lon="-1.73922">
        <ele>29.4575195</ele>
        <time>2010-11-07T10:29:19Z</time>
      </trkpt>
      <trkpt lat="47.14406" lon="-1.7395">
        <ele>28.9769287</ele>
        <time>2010-11-07T10:29:31Z</time>
      </trkpt>
      <trkpt lat="47.14365" lon="-1.73983">
        <ele>28.4962158</ele>
        <time>2010-11-07T10:29:42Z</time>
      </trkpt>
      <trkpt lat="47.14326" lon="-1.74019">
        <ele>28.4962158</ele>
        <time>2010-11-07T10:29:53Z</time>
      </trkpt>
      <trkpt lat="47.14279" lon="-1.74053">
        <ele>27.5349121</ele>
        <time>2010-11-07T10:30:04Z</time>
      </trkpt>
      <trkpt lat="47.14235" lon="-1.74082">
        <ele>26.5736084</ele>
        <time>2010-11-07T10:30:15Z</time>
      </trkpt>
      <trkpt lat="47.14193" lon="-1.74107">
        <ele>25.1317139</ele>
        <time>2010-11-07T10:30:26Z</time>
      </trkpt>
      <trkpt lat="47.14151" lon="-1.74139">
        <ele>25.1317139</ele>
        <time>2010-11-07T10:30:38Z</time>
      </trkpt>
      <trkpt lat="47.14106" lon="-1.74141">
        <ele>25.6123047</ele>
        <time>2010-11-07T10:30:49Z</time>
      </trkpt>
      <trkpt lat="47.14068" lon="-1.74097">
        <ele>24.651001</ele>
        <time>2010-11-07T10:31:00Z</time>
      </trkpt>
      <trkpt lat="47.14037" lon="-1.74046">
        <ele>24.1702881</ele>
        <time>2010-11-07T10:31:10Z</time>
      </trkpt>
      <trkpt lat="47.14006" lon="-1.73995">
        <ele>23.6895752</ele>
        <time>2010-11-07T10:31:22Z</time>
      </trkpt>
      <trkpt lat="47.14004" lon="-1.73935">
        <ele>23.2089844</ele>
        <time>2010-11-07T10:31:34Z</time>
      </trkpt>
      <trkpt lat="47.14028" lon="-1.73872">
        <ele>22.2475586</ele>
        <time>2010-11-07T10:31:44Z</time>
      </trkpt>
      <trkpt lat="47.14049" lon="-1.73805">
        <ele>21.7669678</ele>
        <time>2010-11-07T10:31:54Z</time>
      </trkpt>
      <trkpt lat="47.14072" lon="-1.7374">
        <ele>20.8056641</ele>
        <time>2010-11-07T10:32:04Z</time>
      </trkpt>
      <trkpt lat="47.14092" lon="-1.73673">
        <ele>20.3249512</ele>
        <time>2010-11-07T10:32:13Z</time>
      </trkpt>
      <trkpt lat="47.14111" lon="-1.73611">
        <ele>19.3637695</ele>
        <time>2010-11-07T10:32:22Z</time>
      </trkpt>
      <trkpt lat="47.14136" lon="-1.73546">
        <ele>20.8056641</ele>
        <time>2010-11-07T10:32:32Z</time>
      </trkpt>
      <trkpt lat="47.14155" lon="-1.73484">
        <ele>20.3249512</ele>
        <time>2010-11-07T10:32:42Z</time>
      </trkpt>
      <trkpt lat="47.1417" lon="-1.73418">
        <ele>21.286377</ele>
        <time>2010-11-07T10:32:52Z</time>
      </trkpt>
      <trkpt lat="47.14184" lon="-1.73353">
        <ele>21.286377</ele>
        <time>2010-11-07T10:33:03Z</time>
      </trkpt>
      <trkpt lat="47.14203" lon="-1.73284">
        <ele>22.2475586</ele>
        <time>2010-11-07T10:33:14Z</time>
      </trkpt>
      <trkpt lat="47.14226" lon="-1.73224">
        <ele>24.651001</ele>
        <time>2010-11-07T10:33:25Z</time>
      </trkpt>
      <trkpt lat="47.1426" lon="-1.73169">
        <ele>24.1702881</ele>
        <time>2010-11-07T10:33:36Z</time>
      </trkpt>
      <trkpt lat="47.14298" lon="-1.73123">
        <ele>25.1317139</ele>
        <time>2010-11-07T10:33:47Z</time>
      </trkpt>
      <trkpt lat="47.14337" lon="-1.7308">
        <ele>25.6123047</ele>
        <time>2010-11-07T10:33:58Z</time>
      </trkpt>
      <trkpt lat="47.14372" lon="-1.73036">
        <ele>25.6123047</ele>
        <time>2010-11-07T10:34:10Z</time>
      </trkpt>
      <trkpt lat="47.14407" lon="-1.72994">
        <ele>26.0928955</ele>
        <time>2010-11-07T10:34:20Z</time>
      </trkpt>
      <trkpt lat="47.14443" lon="-1.72952">
        <ele>26.0928955</ele>
        <time>2010-11-07T10:34:30Z</time>
      </trkpt>
      <trkpt lat="47.1448" lon="-1.72911">
        <ele>25.1317139</ele>
        <time>2010-11-07T10:34:40Z</time>
      </trkpt>
      <trkpt lat="47.1452" lon="-1.7287">
        <ele>25.1317139</ele>
        <time>2010-11-07T10:34:51Z</time>
      </trkpt>
      <trkpt lat="47.14559" lon="-1.72829">
        <ele>23.2089844</ele>
        <time>2010-11-07T10:35:01Z</time>
      </trkpt>
      <trkpt lat="47.14594" lon="-1.72787">
        <ele>22.7282715</ele>
        <time>2010-11-07T10:35:11Z</time>
      </trkpt>
      <trkpt lat="47.14632" lon="-1.72743">
        <ele>23.2089844</ele>
        <time>2010-11-07T10:35:23Z</time>
      </trkpt>
      <trkpt lat="47.14663" lon="-1.72694">
        <ele>22.7282715</ele>
        <time>2010-11-07T10:35:34Z</time>
      </trkpt>
      <trkpt lat="47.14694" lon="-1.72642">
        <ele>22.7282715</ele>
        <time>2010-11-07T10:35:45Z</time>
      </trkpt>
      <trkpt lat="47.14722" lon="-1.72588">
        <ele>22.7282715</ele>
        <time>2010-11-07T10:35:56Z</time>
      </trkpt>
      <trkpt lat="47.14749" lon="-1.72517">
        <ele>20.3249512</ele>
        <time>2010-11-07T10:36:08Z</time>
      </trkpt>
      <trkpt lat="47.14778" lon="-1.72449">
        <ele>19.8443604</ele>
        <time>2010-11-07T10:36:18Z</time>
      </trkpt>
      <trkpt lat="47.14804" lon="-1.72392">
        <ele>21.286377</ele>
        <time>2010-11-07T10:36:27Z</time>
      </trkpt>
      <trkpt lat="47.14831" lon="-1.72329">
        <ele>21.286377</ele>
        <time>2010-11-07T10:36:36Z</time>
      </trkpt>
      <trkpt lat="47.14855" lon="-1.72271">
        <ele>21.7669678</ele>
        <time>2010-11-07T10:36:44Z</time>
      </trkpt>
      <trkpt lat="47.1488" lon="-1.7221">
        <ele>20.3249512</ele>
        <time>2010-11-07T10:36:53Z</time>
      </trkpt>
      <trkpt lat="47.14916" lon="-1.72158">
        <ele>21.7669678</ele>
        <time>2010-11-07T10:37:02Z</time>
      </trkpt>
      <trkpt lat="47.14952" lon="-1.72113">
        <ele>23.2089844</ele>
        <time>2010-11-07T10:37:12Z</time>
      </trkpt>
      <trkpt lat="47.14984" lon="-1.7206">
        <ele>22.7282715</ele>
        <time>2010-11-07T10:37:23Z</time>
      </trkpt>
      <trkpt lat="47.15012" lon="-1.72004">
        <ele>21.7669678</ele>
        <time>2010-11-07T10:37:34Z</time>
      </trkpt>
      <trkpt lat="47.15039" lon="-1.71942">
        <ele>23.2089844</ele>
        <time>2010-11-07T10:37:47Z</time>
      </trkpt>
      <trkpt lat="47.1507" lon="-1.71889">
        <ele>23.6895752</ele>
        <time>2010-11-07T10:37:58Z</time>
      </trkpt>
      <trkpt lat="47.151" lon="-1.7184">
        <ele>21.286377</ele>
        <time>2010-11-07T10:38:10Z</time>
      </trkpt>
      <trkpt lat="47.1514" lon="-1.71793">
        <ele>20.3249512</ele>
        <time>2010-11-07T10:38:21Z</time>
      </trkpt>
      <trkpt lat="47.15179" lon="-1.71748">
        <ele>20.3249512</ele>
        <time>2010-11-07T10:38:32Z</time>
      </trkpt>
      <trkpt lat="47.15214" lon="-1.71704">
        <ele>21.7669678</ele>
        <time>2010-11-07T10:38:43Z</time>
      </trkpt>
      <trkpt lat="47.15238" lon="-1.71646">
        <ele>23.6895752</ele>
        <time>2010-11-07T10:38:55Z</time>
      </trkpt>
      <trkpt lat="47.15264" lon="-1.71588">
        <ele>25.6123047</ele>
        <time>2010-11-07T10:39:07Z</time>
      </trkpt>
      <trkpt lat="47.15303" lon="-1.71546">
        <ele>25.1317139</ele>
        <time>2010-11-07T10:39:17Z</time>
      </trkpt>
      <trkpt lat="47.1534" lon="-1.71506">
        <ele>23.6895752</ele>
        <time>2010-11-07T10:39:26Z</time>
      </trkpt>
      <trkpt lat="47.15381" lon="-1.71465">
        <ele>23.6895752</ele>
        <time>2010-11-07T10:39:35Z</time>
      </trkpt>
      <trkpt lat="47.15421" lon="-1.7143">
        <ele>23.6895752</ele>
        <time>2010-11-07T10:39:44Z</time>
      </trkpt>
      <trkpt lat="47.15461" lon="-1.71389">
        <ele>23.6895752</ele>
        <time>2010-11-07T10:39:54Z</time>
      </trkpt>
      <trkpt lat="47.15466" lon="-1.71337">
        <ele>23.2089844</ele>
        <time>2010-11-07T10:40:07Z</time>
      </trkpt>
      <trkpt lat="47.15435" lon="-1.71286">
        <ele>22.7282715</ele>
        <time>2010-11-07T10:40:18Z</time>
      </trkpt>
      <trkpt lat="47.15402" lon="-1.71234">
        <ele>22.2475586</ele>
        <time>2010-11-07T10:40:28Z</time>
      </trkpt>
      <trkpt lat="47.15366" lon="-1.71188">
        <ele>20.3249512</ele>
        <time>2010-11-07T10:40:37Z</time>
      </trkpt>
      <trkpt lat="47.1533" lon="-1.71148">
        <ele>19.8443604</ele>
        <time>2010-11-07T10:40:45Z</time>
      </trkpt>
      <trkpt lat="47.15293" lon="-1.71101">
        <ele>19.8443604</ele>
        <time>2010-11-07T10:40:54Z</time>
      </trkpt>
      <trkpt lat="47.15259" lon="-1.71047">
        <ele>19.3637695</ele>
        <time>2010-11-07T10:41:03Z</time>
      </trkpt>
      <trkpt lat="47.15227" lon="-1.70995">
        <ele>17.9217529</ele>
        <time>2010-11-07T10:41:11Z</time>
      </trkpt>
      <trkpt lat="47.15194" lon="-1.70965">
        <ele>17.4411621</ele>
        <time>2010-11-07T10:41:19Z</time>
      </trkpt>
      <trkpt lat="47.15148" lon="-1.70996">
        <ele>17.9217529</ele>
        <time>2010-11-07T10:41:28Z</time>
      </trkpt>
      <trkpt lat="47.15104" lon="-1.71027">
        <ele>18.4023438</ele>
        <time>2010-11-07T10:41:38Z</time>
      </trkpt>
      <trkpt lat="47.15068" lon="-1.71022">
        <ele>18.8830566</ele>
        <time>2010-11-07T10:41:48Z</time>
      </trkpt>
      <trkpt lat="47.15048" lon="-1.70957">
        <ele>19.3637695</ele>
        <time>2010-11-07T10:41:57Z</time>
      </trkpt>
      <trkpt lat="47.15028" lon="-1.70895">
        <ele>18.8830566</ele>
        <time>2010-11-07T10:42:05Z</time>
      </trkpt>
      <trkpt lat="47.15007" lon="-1.70828">
        <ele>18.8830566</ele>
        <time>2010-11-07T10:42:14Z</time>
      </trkpt>
      <trkpt lat="47.14985" lon="-1.70761">
        <ele>18.8830566</ele>
        <time>2010-11-07T10:42:24Z</time>
      </trkpt>
      <trkpt lat="47.14995" lon="-1.70696">
        <ele>18.8830566</ele>
        <time>2010-11-07T10:42:33Z</time>
      </trkpt>
      <trkpt lat="47.15008" lon="-1.70625">
        <ele>17.9217529</ele>
        <time>2010-11-07T10:42:42Z</time>
      </trkpt>
      <trkpt lat="47.15019" lon="-1.70557">
        <ele>16.9604492</ele>
        <time>2010-11-07T10:42:51Z</time>
      </trkpt>
      <trkpt lat="47.14998" lon="-1.70499">
        <ele>16.9604492</ele>
        <time>2010-11-07T10:42:59Z</time>
      </trkpt>
      <trkpt lat="47.1496" lon="-1.70453">
        <ele>15.9990234</ele>
        <time>2010-11-07T10:43:07Z</time>
      </trkpt>
      <trkpt lat="47.14921" lon="-1.7041">
        <ele>16.4797363</ele>
        <time>2010-11-07T10:43:15Z</time>
      </trkpt>
      <trkpt lat="47.14876" lon="-1.70376">
        <ele>17.9217529</ele>
        <time>2010-11-07T10:43:23Z</time>
      </trkpt>
      <trkpt lat="47.14832" lon="-1.70346">
        <ele>19.3637695</ele>
        <time>2010-11-07T10:43:31Z</time>
      </trkpt>
      <trkpt lat="47.14788" lon="-1.70309">
        <ele>20.3249512</ele>
        <time>2010-11-07T10:43:39Z</time>
      </trkpt>
      <trkpt lat="47.14755" lon="-1.70259">
        <ele>20.8056641</ele>
        <time>2010-11-07T10:43:46Z</time>
      </trkpt>
      <trkpt lat="47.14722" lon="-1.70208">
        <ele>20.3249512</ele>
        <time>2010-11-07T10:43:53Z</time>
      </trkpt>
      <trkpt lat="47.14695" lon="-1.70155">
        <ele>18.8830566</ele>
        <time>2010-11-07T10:43:59Z</time>
      </trkpt>
      <trkpt lat="47.1467" lon="-1.70088">
        <ele>15.9990234</ele>
        <time>2010-11-07T10:44:05Z</time>
      </trkpt>
      <trkpt lat="47.14644" lon="-1.70022">
        <ele>14.5570068</ele>
        <time>2010-11-07T10:44:11Z</time>
      </trkpt>
      <trkpt lat="47.14621" lon="-1.69961">
        <ele>14.076416</ele>
        <time>2010-11-07T10:44:17Z</time>
      </trkpt>
      <trkpt lat="47.14599" lon="-1.69913">
        <ele>13.1151123</ele>
        <time>2010-11-07T10:44:30Z</time>
      </trkpt>
      <trkpt lat="47.14614" lon="-1.69916">
        <ele>15.0377197</ele>
        <time>2010-11-07T10:49:49Z</time>
      </trkpt>
      <trkpt lat="47.14648" lon="-1.6994">
        <ele>13.1151123</ele>
        <time>2010-11-07T10:50:13Z</time>
      </trkpt>
      <trkpt lat="47.14676" lon="-1.69884">
        <ele>11.1925049</ele>
        <time>2010-11-07T10:50:27Z</time>
      </trkpt>
      <trkpt lat="47.1469" lon="-1.69809">
        <ele>15.0377197</ele>
        <time>2010-11-07T10:50:44Z</time>
      </trkpt>
      <trkpt lat="47.14716" lon="-1.69743">
        <ele>12.6343994</ele>
        <time>2010-11-07T10:50:58Z</time>
      </trkpt>
      <trkpt lat="47.14761" lon="-1.69717">
        <ele>8.7891846</ele>
        <time>2010-11-07T10:51:11Z</time>
      </trkpt>
      <trkpt lat="47.14811" lon="-1.69715">
        <ele>5.9052734</ele>
        <time>2010-11-07T10:51:20Z</time>
      </trkpt>
      <trkpt lat="47.1486" lon="-1.69722">
        <ele>5.9052734</ele>
        <time>2010-11-07T10:51:30Z</time>
      </trkpt>
      <trkpt lat="47.14906" lon="-1.69728">
        <ele>10.2312012</ele>
        <time>2010-11-07T10:51:42Z</time>
      </trkpt>
      <trkpt lat="47.14944" lon="-1.69723">
        <ele>15.5184326</ele>
        <time>2010-11-07T10:51:59Z</time>
      </trkpt>
      <trkpt lat="47.14991" lon="-1.69713">
        <ele>18.8830566</ele>
        <time>2010-11-07T10:52:17Z</time>
      </trkpt>
      <trkpt lat="47.15034" lon="-1.69664">
        <ele>19.3637695</ele>
        <time>2010-11-07T10:52:35Z</time>
      </trkpt>
      <trkpt lat="47.15071" lon="-1.69619">
        <ele>21.7669678</ele>
        <time>2010-11-07T10:52:53Z</time>
      </trkpt>
      <trkpt lat="47.15111" lon="-1.69575">
        <ele>23.2089844</ele>
        <time>2010-11-07T10:53:10Z</time>
      </trkpt>
      <trkpt lat="47.15149" lon="-1.69535">
        <ele>23.2089844</ele>
        <time>2010-11-07T10:53:25Z</time>
      </trkpt>
      <trkpt lat="47.15187" lon="-1.69499">
        <ele>24.1702881</ele>
        <time>2010-11-07T10:53:42Z</time>
      </trkpt>
      <trkpt lat="47.15225" lon="-1.69461">
        <ele>25.6123047</ele>
        <time>2010-11-07T10:53:59Z</time>
      </trkpt>
      <trkpt lat="47.15264" lon="-1.69418">
        <ele>25.1317139</ele>
        <time>2010-11-07T10:54:11Z</time>
      </trkpt>
      <trkpt lat="47.15304" lon="-1.69375">
        <ele>24.651001</ele>
        <time>2010-11-07T10:54:21Z</time>
      </trkpt>
      <trkpt lat="47.15342" lon="-1.69334">
        <ele>24.651001</ele>
        <time>2010-11-07T10:54:30Z</time>
      </trkpt>
      <trkpt lat="47.15383" lon="-1.69289">
        <ele>24.651001</ele>
        <time>2010-11-07T10:54:39Z</time>
      </trkpt>
      <trkpt lat="47.15419" lon="-1.69246">
        <ele>24.651001</ele>
        <time>2010-11-07T10:54:47Z</time>
      </trkpt>
      <trkpt lat="47.15456" lon="-1.69202">
        <ele>24.1702881</ele>
        <time>2010-11-07T10:54:55Z</time>
      </trkpt>
      <trkpt lat="47.15493" lon="-1.69158">
        <ele>24.1702881</ele>
        <time>2010-11-07T10:55:03Z</time>
      </trkpt>
      <trkpt lat="47.15531" lon="-1.69111">
        <ele>23.6895752</ele>
        <time>2010-11-07T10:55:11Z</time>
      </trkpt>
      <trkpt lat="47.15569" lon="-1.69066">
        <ele>22.7282715</ele>
        <time>2010-11-07T10:55:19Z</time>
      </trkpt>
      <trkpt lat="47.15589" lon="-1.69009">
        <ele>22.2475586</ele>
        <time>2010-11-07T10:55:27Z</time>
      </trkpt>
      <trkpt lat="47.15556" lon="-1.68957">
        <ele>22.2475586</ele>
        <time>2010-11-07T10:55:36Z</time>
      </trkpt>
      <trkpt lat="47.15515" lon="-1.68914">
        <ele>23.2089844</ele>
        <time>2010-11-07T10:55:45Z</time>
      </trkpt>
      <trkpt lat="47.15481" lon="-1.68866">
        <ele>24.1702881</ele>
        <time>2010-11-07T10:55:53Z</time>
      </trkpt>
      <trkpt lat="47.15444" lon="-1.68822">
        <ele>24.1702881</ele>
        <time>2010-11-07T10:56:01Z</time>
      </trkpt>
      <trkpt lat="47.15401" lon="-1.68793">
        <ele>25.1317139</ele>
        <time>2010-11-07T10:56:09Z</time>
      </trkpt>
      <trkpt lat="47.15357" lon="-1.68766">
        <ele>25.6123047</ele>
        <time>2010-11-07T10:56:17Z</time>
      </trkpt>
      <trkpt lat="47.15313" lon="-1.68741">
        <ele>25.6123047</ele>
        <time>2010-11-07T10:56:25Z</time>
      </trkpt>
      <trkpt lat="47.1527" lon="-1.6871">
        <ele>25.1317139</ele>
        <time>2010-11-07T10:56:34Z</time>
      </trkpt>
      <trkpt lat="47.15271" lon="-1.6865">
        <ele>26.0928955</ele>
        <time>2010-11-07T10:56:44Z</time>
      </trkpt>
      <trkpt lat="47.15277" lon="-1.68584">
        <ele>27.0543213</ele>
        <time>2010-11-07T10:56:52Z</time>
      </trkpt>
      <trkpt lat="47.15271" lon="-1.68517">
        <ele>27.5349121</ele>
        <time>2010-11-07T10:57:01Z</time>
      </trkpt>
      <trkpt lat="47.15254" lon="-1.68473">
        <ele>27.5349121</ele>
        <time>2010-11-07T10:57:11Z</time>
      </trkpt>
      <trkpt lat="47.15284" lon="-1.68414">
        <ele>26.0928955</ele>
        <time>2010-11-07T10:57:20Z</time>
      </trkpt>
      <trkpt lat="47.15309" lon="-1.68351">
        <ele>25.6123047</ele>
        <time>2010-11-07T10:57:28Z</time>
      </trkpt>
      <trkpt lat="47.15328" lon="-1.68288">
        <ele>26.0928955</ele>
        <time>2010-11-07T10:57:36Z</time>
      </trkpt>
      <trkpt lat="47.15347" lon="-1.68224">
        <ele>26.0928955</ele>
        <time>2010-11-07T10:57:49Z</time>
      </trkpt>
      <trkpt lat="47.1537" lon="-1.68158">
        <ele>26.0928955</ele>
        <time>2010-11-07T10:57:57Z</time>
      </trkpt>
      <trkpt lat="47.15394" lon="-1.68099">
        <ele>26.5736084</ele>
        <time>2010-11-07T10:58:04Z</time>
      </trkpt>
      <trkpt lat="47.15404" lon="-1.68032">
        <ele>26.5736084</ele>
        <time>2010-11-07T10:58:12Z</time>
      </trkpt>
      <trkpt lat="47.15417" lon="-1.6796">
        <ele>27.5349121</ele>
        <time>2010-11-07T10:58:20Z</time>
      </trkpt>
      <trkpt lat="47.15433" lon="-1.67892">
        <ele>27.5349121</ele>
        <time>2010-11-07T10:58:28Z</time>
      </trkpt>
      <trkpt lat="47.1545" lon="-1.6782">
        <ele>28.0155029</ele>
        <time>2010-11-07T10:58:36Z</time>
      </trkpt>
      <trkpt lat="47.1546" lon="-1.67753">
        <ele>28.0155029</ele>
        <time>2010-11-07T10:58:43Z</time>
      </trkpt>
      <trkpt lat="47.15468" lon="-1.67684">
        <ele>28.9769287</ele>
        <time>2010-11-07T10:58:50Z</time>
      </trkpt>
      <trkpt lat="47.15478" lon="-1.6761">
        <ele>29.4575195</ele>
        <time>2010-11-07T10:58:57Z</time>
      </trkpt>
      <trkpt lat="47.1549" lon="-1.6754">
        <ele>29.4575195</ele>
        <time>2010-11-07T10:59:04Z</time>
      </trkpt>
      <trkpt lat="47.15504" lon="-1.67466">
        <ele>29.9381104</ele>
        <time>2010-11-07T10:59:11Z</time>
      </trkpt>
      <trkpt lat="47.15516" lon="-1.67402">
        <ele>29.9381104</ele>
        <time>2010-11-07T10:59:17Z</time>
      </trkpt>
      <trkpt lat="47.15527" lon="-1.67337">
        <ele>29.9381104</ele>
        <time>2010-11-07T10:59:23Z</time>
      </trkpt>
      <trkpt lat="47.15546" lon="-1.67268">
        <ele>28.4962158</ele>
        <time>2010-11-07T10:59:30Z</time>
      </trkpt>
      <trkpt lat="47.15564" lon="-1.6721">
        <ele>28.0155029</ele>
        <time>2010-11-07T10:59:39Z</time>
      </trkpt>
      <trkpt lat="47.15611" lon="-1.672">
        <ele>27.5349121</ele>
        <time>2010-11-07T10:59:49Z</time>
      </trkpt>
      <trkpt lat="47.1566" lon="-1.67187">
        <ele>27.5349121</ele>
        <time>2010-11-07T10:59:59Z</time>
      </trkpt>
      <trkpt lat="47.15709" lon="-1.67176">
        <ele>27.5349121</ele>
        <time>2010-11-07T11:00:09Z</time>
      </trkpt>
      <trkpt lat="47.15741" lon="-1.67171">
        <ele>28.4962158</ele>
        <time>2010-11-07T11:00:24Z</time>
      </trkpt>
      <trkpt lat="47.15735" lon="-1.67106">
        <ele>29.4575195</ele>
        <time>2010-11-07T11:00:40Z</time>
      </trkpt>
      <trkpt lat="47.15736" lon="-1.67036">
        <ele>28.0155029</ele>
        <time>2010-11-07T11:00:55Z</time>
      </trkpt>
      <trkpt lat="47.15727" lon="-1.66973">
        <ele>27.0543213</ele>
        <time>2010-11-07T11:01:31Z</time>
      </trkpt>
      <trkpt lat="47.15729" lon="-1.66901">
        <ele>26.5736084</ele>
        <time>2010-11-07T11:01:43Z</time>
      </trkpt>
      <trkpt lat="47.1573" lon="-1.66829">
        <ele>27.0543213</ele>
        <time>2010-11-07T11:01:53Z</time>
      </trkpt>
      <trkpt lat="47.15731" lon="-1.66759">
        <ele>27.0543213</ele>
        <time>2010-11-07T11:02:02Z</time>
      </trkpt>
      <trkpt lat="47.15748" lon="-1.66701">
        <ele>26.5736084</ele>
        <time>2010-11-07T11:02:14Z</time>
      </trkpt>
      <trkpt lat="47.15746" lon="-1.66633">
        <ele>27.0543213</ele>
        <time>2010-11-07T11:02:23Z</time>
      </trkpt>
      <trkpt lat="47.15746" lon="-1.66564">
        <ele>27.0543213</ele>
        <time>2010-11-07T11:02:33Z</time>
      </trkpt>
      <trkpt lat="47.15781" lon="-1.66535">
        <ele>26.0928955</ele>
        <time>2010-11-07T11:02:45Z</time>
      </trkpt>
      <trkpt lat="47.15829" lon="-1.66527">
        <ele>26.0928955</ele>
        <time>2010-11-07T11:02:56Z</time>
      </trkpt>
      <trkpt lat="47.15877" lon="-1.66514">
        <ele>27.0543213</ele>
        <time>2010-11-07T11:03:06Z</time>
      </trkpt>
      <trkpt lat="47.15924" lon="-1.665">
        <ele>29.4575195</ele>
        <time>2010-11-07T11:03:16Z</time>
      </trkpt>
      <trkpt lat="47.15973" lon="-1.665">
        <ele>30.8995361</ele>
        <time>2010-11-07T11:03:26Z</time>
      </trkpt>
      <trkpt lat="47.16019" lon="-1.66505">
        <ele>30.4188232</ele>
        <time>2010-11-07T11:03:35Z</time>
      </trkpt>
      <trkpt lat="47.16067" lon="-1.66499">
        <ele>29.9381104</ele>
        <time>2010-11-07T11:03:45Z</time>
      </trkpt>
      <trkpt lat="47.16067" lon="-1.66433">
        <ele>29.4575195</ele>
        <time>2010-11-07T11:03:54Z</time>
      </trkpt>
      <trkpt lat="47.16062" lon="-1.66367">
        <ele>29.4575195</ele>
        <time>2010-11-07T11:04:05Z</time>
      </trkpt>
      <trkpt lat="47.16056" lon="-1.66299">
        <ele>28.4962158</ele>
        <time>2010-11-07T11:04:19Z</time>
      </trkpt>
      <trkpt lat="47.16048" lon="-1.66234">
        <ele>28.4962158</ele>
        <time>2010-11-07T11:04:31Z</time>
      </trkpt>
      <trkpt lat="47.1604" lon="-1.66169">
        <ele>28.4962158</ele>
        <time>2010-11-07T11:04:41Z</time>
      </trkpt>
      <trkpt lat="47.16031" lon="-1.66102">
        <ele>29.4575195</ele>
        <time>2010-11-07T11:04:50Z</time>
      </trkpt>
      <trkpt lat="47.1602" lon="-1.66034">
        <ele>29.4575195</ele>
        <time>2010-11-07T11:04:58Z</time>
      </trkpt>
      <trkpt lat="47.16011" lon="-1.65962">
        <ele>28.4962158</ele>
        <time>2010-11-07T11:05:06Z</time>
      </trkpt>
      <trkpt lat="47.16007" lon="-1.65896">
        <ele>28.0155029</ele>
        <time>2010-11-07T11:05:13Z</time>
      </trkpt>
      <trkpt lat="47.16016" lon="-1.65835">
        <ele>28.4962158</ele>
        <time>2010-11-07T11:05:21Z</time>
      </trkpt>
      <trkpt lat="47.16065" lon="-1.65822">
        <ele>30.8995361</ele>
        <time>2010-11-07T11:05:30Z</time>
      </trkpt>
      <trkpt lat="47.16114" lon="-1.6581">
        <ele>32.8222656</ele>
        <time>2010-11-07T11:05:38Z</time>
      </trkpt>
      <trkpt lat="47.1616" lon="-1.65793">
        <ele>33.3028564</ele>
        <time>2010-11-07T11:05:45Z</time>
      </trkpt>
      <trkpt lat="47.1621" lon="-1.65769">
        <ele>33.3028564</ele>
        <time>2010-11-07T11:05:53Z</time>
      </trkpt>
      <trkpt lat="47.16256" lon="-1.65747">
        <ele>31.8607178</ele>
        <time>2010-11-07T11:06:01Z</time>
      </trkpt>
      <trkpt lat="47.16298" lon="-1.65724">
        <ele>30.8995361</ele>
        <time>2010-11-07T11:06:09Z</time>
      </trkpt>
      <trkpt lat="47.16343" lon="-1.65704">
        <ele>29.4575195</ele>
        <time>2010-11-07T11:06:17Z</time>
      </trkpt>
      <trkpt lat="47.16388" lon="-1.65688">
        <ele>28.0155029</ele>
        <time>2010-11-07T11:06:25Z</time>
      </trkpt>
      <trkpt lat="47.1643" lon="-1.65659">
        <ele>29.4575195</ele>
        <time>2010-11-07T11:06:35Z</time>
      </trkpt>
      <trkpt lat="47.16437" lon="-1.65614">
        <ele>34.744873</ele>
        <time>2010-11-07T11:06:51Z</time>
      </trkpt>
      <trkpt lat="47.16402" lon="-1.65563">
        <ele>41.9547119</ele>
        <time>2010-11-07T11:07:03Z</time>
      </trkpt>
      <trkpt lat="47.16371" lon="-1.65499">
        <ele>42.4354248</ele>
        <time>2010-11-07T11:07:12Z</time>
      </trkpt>
      <trkpt lat="47.1634" lon="-1.65443">
        <ele>42.4354248</ele>
        <time>2010-11-07T11:07:21Z</time>
      </trkpt>
      <trkpt lat="47.16306" lon="-1.65386">
        <ele>40.5128174</ele>
        <time>2010-11-07T11:07:30Z</time>
      </trkpt>
      <trkpt lat="47.16289" lon="-1.65323">
        <ele>39.5512695</ele>
        <time>2010-11-07T11:07:38Z</time>
      </trkpt>
      <trkpt lat="47.16289" lon="-1.65248">
        <ele>39.5512695</ele>
        <time>2010-11-07T11:07:47Z</time>
      </trkpt>
      <trkpt lat="47.16287" lon="-1.65175">
        <ele>37.6286621</ele>
        <time>2010-11-07T11:07:55Z</time>
      </trkpt>
      <trkpt lat="47.16286" lon="-1.65104">
        <ele>35.2254639</ele>
        <time>2010-11-07T11:08:03Z</time>
      </trkpt>
      <trkpt lat="47.16283" lon="-1.65034">
        <ele>34.2641602</ele>
        <time>2010-11-07T11:08:13Z</time>
      </trkpt>
      <trkpt lat="47.16259" lon="-1.64996">
        <ele>32.3415527</ele>
        <time>2010-11-07T11:08:22Z</time>
      </trkpt>
      <trkpt lat="47.16211" lon="-1.65011">
        <ele>30.4188232</ele>
        <time>2010-11-07T11:08:30Z</time>
      </trkpt>
      <trkpt lat="47.16164" lon="-1.65026">
        <ele>28.4962158</ele>
        <time>2010-11-07T11:08:38Z</time>
      </trkpt>
      <trkpt lat="47.16121" lon="-1.65014">
        <ele>28.0155029</ele>
        <time>2010-11-07T11:08:46Z</time>
      </trkpt>
      <trkpt lat="47.16077" lon="-1.64981">
        <ele>26.0928955</ele>
        <time>2010-11-07T11:08:59Z</time>
      </trkpt>
      <trkpt lat="47.16037" lon="-1.64949">
        <ele>25.6123047</ele>
        <time>2010-11-07T11:09:08Z</time>
      </trkpt>
      <trkpt lat="47.16023" lon="-1.64887">
        <ele>25.1317139</ele>
        <time>2010-11-07T11:09:16Z</time>
      </trkpt>
      <trkpt lat="47.16024" lon="-1.64812">
        <ele>24.1702881</ele>
        <time>2010-11-07T11:09:24Z</time>
      </trkpt>
      <trkpt lat="47.16027" lon="-1.64741">
        <ele>23.6895752</ele>
        <time>2010-11-07T11:09:31Z</time>
      </trkpt>
      <trkpt lat="47.16009" lon="-1.64672">
        <ele>22.7282715</ele>
        <time>2010-11-07T11:09:38Z</time>
      </trkpt>
      <trkpt lat="47.15988" lon="-1.64607">
        <ele>22.2475586</ele>
        <time>2010-11-07T11:09:45Z</time>
      </trkpt>
      <trkpt lat="47.1597" lon="-1.64543">
        <ele>21.7669678</ele>
        <time>2010-11-07T11:09:52Z</time>
      </trkpt>
      <trkpt lat="47.15958" lon="-1.64471">
        <ele>22.7282715</ele>
        <time>2010-11-07T11:10:00Z</time>
      </trkpt>
      <trkpt lat="47.15973" lon="-1.64412">
        <ele>22.7282715</ele>
        <time>2010-11-07T11:10:08Z</time>
      </trkpt>
      <trkpt lat="47.16012" lon="-1.64364">
        <ele>22.2475586</ele>
        <time>2010-11-07T11:10:15Z</time>
      </trkpt>
      <trkpt lat="47.1605" lon="-1.64322">
        <ele>21.7669678</ele>
        <time>2010-11-07T11:10:22Z</time>
      </trkpt>
      <trkpt lat="47.16093" lon="-1.64286">
        <ele>24.1702881</ele>
        <time>2010-11-07T11:10:32Z</time>
      </trkpt>
      <trkpt lat="47.1612" lon="-1.6423">
        <ele>27.0543213</ele>
        <time>2010-11-07T11:10:42Z</time>
      </trkpt>
      <trkpt lat="47.1614" lon="-1.6416">
        <ele>28.0155029</ele>
        <time>2010-11-07T11:10:53Z</time>
      </trkpt>
      <trkpt lat="47.16166" lon="-1.64102">
        <ele>28.4962158</ele>
        <time>2010-11-07T11:11:04Z</time>
      </trkpt>
      <trkpt lat="47.16204" lon="-1.64059">
        <ele>28.4962158</ele>
        <time>2010-11-07T11:11:16Z</time>
      </trkpt>
      <trkpt lat="47.16244" lon="-1.64022">
        <ele>29.9381104</ele>
        <time>2010-11-07T11:11:28Z</time>
      </trkpt>
      <trkpt lat="47.16287" lon="-1.63994">
        <ele>30.4188232</ele>
        <time>2010-11-07T11:11:39Z</time>
      </trkpt>
      <trkpt lat="47.16334" lon="-1.63962">
        <ele>36.6674805</ele>
        <time>2010-11-07T11:11:52Z</time>
      </trkpt>
      <trkpt lat="47.1638" lon="-1.63925">
        <ele>47.7225342</ele>
        <time>2010-11-07T11:12:04Z</time>
      </trkpt>
      <trkpt lat="47.16428" lon="-1.63891">
        <ele>48.2033691</ele>
        <time>2010-11-07T11:12:14Z</time>
      </trkpt>
      <trkpt lat="47.16472" lon="-1.63859">
        <ele>47.2418213</ele>
        <time>2010-11-07T11:12:24Z</time>
      </trkpt>
      <trkpt lat="47.16458" lon="-1.63791">
        <ele>45.3192139</ele>
        <time>2010-11-07T11:12:35Z</time>
      </trkpt>
      <trkpt lat="47.16443" lon="-1.63726">
        <ele>44.838623</ele>
        <time>2010-11-07T11:12:44Z</time>
      </trkpt>
      <trkpt lat="47.16419" lon="-1.63658">
        <ele>40.5128174</ele>
        <time>2010-11-07T11:12:53Z</time>
      </trkpt>
      <trkpt lat="47.16399" lon="-1.63592">
        <ele>37.6286621</ele>
        <time>2010-11-07T11:13:05Z</time>
      </trkpt>
      <trkpt lat="47.16362" lon="-1.6357">
        <ele>33.7834473</ele>
        <time>2010-11-07T11:13:18Z</time>
      </trkpt>
      <trkpt lat="47.16326" lon="-1.63543">
        <ele>30.8995361</ele>
        <time>2010-11-07T11:13:32Z</time>
      </trkpt>
      <trkpt lat="47.16291" lon="-1.63495">
        <ele>30.4188232</ele>
        <time>2010-11-07T11:13:42Z</time>
      </trkpt>
      <trkpt lat="47.16257" lon="-1.63448">
        <ele>29.4575195</ele>
        <time>2010-11-07T11:13:50Z</time>
      </trkpt>
      <trkpt lat="47.16232" lon="-1.63389">
        <ele>29.4575195</ele>
        <time>2010-11-07T11:13:58Z</time>
      </trkpt>
      <trkpt lat="47.16211" lon="-1.63324">
        <ele>28.9769287</ele>
        <time>2010-11-07T11:14:06Z</time>
      </trkpt>
      <trkpt lat="47.16196" lon="-1.63259">
        <ele>27.5349121</ele>
        <time>2010-11-07T11:14:13Z</time>
      </trkpt>
      <trkpt lat="47.16177" lon="-1.63194">
        <ele>26.0928955</ele>
        <time>2010-11-07T11:14:20Z</time>
      </trkpt>
      <trkpt lat="47.16154" lon="-1.63129">
        <ele>25.1317139</ele>
        <time>2010-11-07T11:14:28Z</time>
      </trkpt>
      <trkpt lat="47.16142" lon="-1.63059">
        <ele>26.0928955</ele>
        <time>2010-11-07T11:14:37Z</time>
      </trkpt>
      <trkpt lat="47.16169" lon="-1.62999">
        <ele>25.1317139</ele>
        <time>2010-11-07T11:14:44Z</time>
      </trkpt>
      <trkpt lat="47.16197" lon="-1.62937">
        <ele>26.0928955</ele>
        <time>2010-11-07T11:14:52Z</time>
      </trkpt>
      <trkpt lat="47.16227" lon="-1.62875">
        <ele>28.0155029</ele>
        <time>2010-11-07T11:15:00Z</time>
      </trkpt>
      <trkpt lat="47.16268" lon="-1.62831">
        <ele>28.0155029</ele>
        <time>2010-11-07T11:15:08Z</time>
      </trkpt>
      <trkpt lat="47.16298" lon="-1.62778">
        <ele>29.4575195</ele>
        <time>2010-11-07T11:15:16Z</time>
      </trkpt>
      <trkpt lat="47.16297" lon="-1.62706">
        <ele>28.9769287</ele>
        <time>2010-11-07T11:15:28Z</time>
      </trkpt>
      <trkpt lat="47.16312" lon="-1.62637">
        <ele>27.5349121</ele>
        <time>2010-11-07T11:15:39Z</time>
      </trkpt>
      <trkpt lat="47.16325" lon="-1.62575">
        <ele>25.6123047</ele>
        <time>2010-11-07T11:15:49Z</time>
      </trkpt>
      <trkpt lat="47.16372" lon="-1.62584">
        <ele>25.1317139</ele>
        <time>2010-11-07T11:15:59Z</time>
      </trkpt>
      <trkpt lat="47.16415" lon="-1.62557">
        <ele>25.6123047</ele>
        <time>2010-11-07T11:16:09Z</time>
      </trkpt>
      <trkpt lat="47.16461" lon="-1.62546">
        <ele>25.6123047</ele>
        <time>2010-11-07T11:16:20Z</time>
      </trkpt>
      <trkpt lat="47.16508" lon="-1.62561">
        <ele>24.651001</ele>
        <time>2010-11-07T11:16:30Z</time>
      </trkpt>
      <trkpt lat="47.16551" lon="-1.62546">
        <ele>23.6895752</ele>
        <time>2010-11-07T11:16:39Z</time>
      </trkpt>
      <trkpt lat="47.1658" lon="-1.62487">
        <ele>22.2475586</ele>
        <time>2010-11-07T11:16:48Z</time>
      </trkpt>
      <trkpt lat="47.16606" lon="-1.62427">
        <ele>21.286377</ele>
        <time>2010-11-07T11:16:56Z</time>
      </trkpt>
      <trkpt lat="47.16642" lon="-1.62377">
        <ele>19.3637695</ele>
        <time>2010-11-07T11:17:04Z</time>
      </trkpt>
      <trkpt lat="47.1669" lon="-1.62366">
        <ele>17.9217529</ele>
        <time>2010-11-07T11:17:12Z</time>
      </trkpt>
      <trkpt lat="47.16727" lon="-1.6241">
        <ele>18.4023438</ele>
        <time>2010-11-07T11:17:22Z</time>
      </trkpt>
      <trkpt lat="47.16765" lon="-1.62443">
        <ele>19.3637695</ele>
        <time>2010-11-07T11:17:32Z</time>
      </trkpt>
      <trkpt lat="47.16806" lon="-1.62443">
        <ele>18.8830566</ele>
        <time>2010-11-07T11:17:43Z</time>
      </trkpt>
      <trkpt lat="47.16843" lon="-1.62398">
        <ele>19.3637695</ele>
        <time>2010-11-07T11:17:54Z</time>
      </trkpt>
      <trkpt lat="47.16883" lon="-1.62368">
        <ele>19.3637695</ele>
        <time>2010-11-07T11:18:07Z</time>
      </trkpt>
      <trkpt lat="47.16928" lon="-1.62345">
        <ele>19.8443604</ele>
        <time>2010-11-07T11:18:19Z</time>
      </trkpt>
      <trkpt lat="47.16964" lon="-1.62304">
        <ele>18.4023438</ele>
        <time>2010-11-07T11:18:32Z</time>
      </trkpt>
      <trkpt lat="47.17011" lon="-1.62281">
        <ele>16.4797363</ele>
        <time>2010-11-07T11:18:41Z</time>
      </trkpt>
      <trkpt lat="47.17051" lon="-1.62251">
        <ele>15.0377197</ele>
        <time>2010-11-07T11:18:49Z</time>
      </trkpt>
      <trkpt lat="47.17098" lon="-1.62225">
        <ele>14.076416</ele>
        <time>2010-11-07T11:18:58Z</time>
      </trkpt>
      <trkpt lat="47.17147" lon="-1.62207">
        <ele>15.0377197</ele>
        <time>2010-11-07T11:19:07Z</time>
      </trkpt>
      <trkpt lat="47.17191" lon="-1.62188">
        <ele>15.9990234</ele>
        <time>2010-11-07T11:19:16Z</time>
      </trkpt>
      <trkpt lat="47.17238" lon="-1.62172">
        <ele>18.4023438</ele>
        <time>2010-11-07T11:19:26Z</time>
      </trkpt>
      <trkpt lat="47.17283" lon="-1.62196">
        <ele>18.4023438</ele>
        <time>2010-11-07T11:19:36Z</time>
      </trkpt>
      <trkpt lat="47.1732" lon="-1.6224">
        <ele>17.9217529</ele>
        <time>2010-11-07T11:19:45Z</time>
      </trkpt>
      <trkpt lat="47.17359" lon="-1.62287">
        <ele>17.9217529</ele>
        <time>2010-11-07T11:19:54Z</time>
      </trkpt>
      <trkpt lat="47.17392" lon="-1.62337">
        <ele>17.4411621</ele>
        <time>2010-11-07T11:20:03Z</time>
      </trkpt>
      <trkpt lat="47.17437" lon="-1.6236">
        <ele>18.4023438</ele>
        <time>2010-11-07T11:20:13Z</time>
      </trkpt>
      <trkpt lat="47.17482" lon="-1.62368">
        <ele>19.8443604</ele>
        <time>2010-11-07T11:20:24Z</time>
      </trkpt>
      <trkpt lat="47.17526" lon="-1.6238">
        <ele>21.7669678</ele>
        <time>2010-11-07T11:20:34Z</time>
      </trkpt>
      <trkpt lat="47.17566" lon="-1.62421">
        <ele>22.2475586</ele>
        <time>2010-11-07T11:20:44Z</time>
      </trkpt>
      <trkpt lat="47.17599" lon="-1.62469">
        <ele>22.2475586</ele>
        <time>2010-11-07T11:20:52Z</time>
      </trkpt>
      <trkpt lat="47.17633" lon="-1.6252">
        <ele>22.2475586</ele>
        <time>2010-11-07T11:21:00Z</time>
      </trkpt>
      <trkpt lat="47.17668" lon="-1.62568">
        <ele>21.286377</ele>
        <time>2010-11-07T11:21:08Z</time>
      </trkpt>
      <trkpt lat="47.17702" lon="-1.62619">
        <ele>20.3249512</ele>
        <time>2010-11-07T11:21:16Z</time>
      </trkpt>
      <trkpt lat="47.17736" lon="-1.6267">
        <ele>19.3637695</ele>
        <time>2010-11-07T11:21:24Z</time>
      </trkpt>
      <trkpt lat="47.17769" lon="-1.62721">
        <ele>19.3637695</ele>
        <time>2010-11-07T11:21:32Z</time>
      </trkpt>
      <trkpt lat="47.17802" lon="-1.62772">
        <ele>19.3637695</ele>
        <time>2010-11-07T11:21:40Z</time>
      </trkpt>
      <trkpt lat="47.17834" lon="-1.62822">
        <ele>19.8443604</ele>
        <time>2010-11-07T11:21:48Z</time>
      </trkpt>
      <trkpt lat="47.17872" lon="-1.62858">
        <ele>20.3249512</ele>
        <time>2010-11-07T11:21:57Z</time>
      </trkpt>
      <trkpt lat="47.17861" lon="-1.62926">
        <ele>18.4023438</ele>
        <time>2010-11-07T11:22:05Z</time>
      </trkpt>
      <trkpt lat="47.17856" lon="-1.62993">
        <ele>14.5570068</ele>
        <time>2010-11-07T11:22:12Z</time>
      </trkpt>
      <trkpt lat="47.17851" lon="-1.63065">
        <ele>11.1925049</ele>
        <time>2010-11-07T11:22:19Z</time>
      </trkpt>
      <trkpt lat="47.17845" lon="-1.63136">
        <ele>7.8278809</ele>
        <time>2010-11-07T11:22:26Z</time>
      </trkpt>
      <trkpt lat="47.17817" lon="-1.63177">
        <ele>5.9052734</ele>
        <time>2010-11-07T11:22:36Z</time>
      </trkpt>
      <trkpt lat="47.17796" lon="-1.63233">
        <ele>9.2698975</ele>
        <time>2010-11-07T11:23:15Z</time>
      </trkpt>
      <trkpt lat="47.17787" lon="-1.63299">
        <ele>7.8278809</ele>
        <time>2010-11-07T11:23:30Z</time>
      </trkpt>
      <trkpt lat="47.17756" lon="-1.63326">
        <ele>9.2698975</ele>
        <time>2010-11-07T11:23:55Z</time>
      </trkpt>
      <trkpt lat="47.17754" lon="-1.63323">
        <ele>9.7506104</ele>
        <time>2010-11-07T11:23:57Z</time>
      </trkpt>
    </trkseg>
  </trk>
</gpx>